Time,TemperatureF,DewpointF,PressureIn,WindDirection,WindDirectionDegrees,WindSpeedMPH,WindSpeedGustMPH,Humidity,HourlyPrecipIn,Conditions,Clouds,dailyrainin,SoftwareType,DateUTC
2013-03-01 00:01:00,23.0,20.5,30.50,WNW,292,12.2,15.0,90,0.00,CLR,,0.00,WeatherDisplay:10.37,2013-03-01 06:01:00,
2013-03-01 00:02:00,23.0,20.5,30.50,NW,315,11.4,15.0,90,0.00,CLR,,0.00,WeatherDisplay:10.37,2013-03-01 06:02:00,
2013-03-01 00:03:00,23.0,20.5,30.50,NW,315,13.2,15.0,90,0.00,CLR,,0.00,WeatherDisplay:10.37,2013-03-01 06:03:00,
2013-03-01 00:06:00,23.0,20.5,30.50,NNW,337,12.9,16.1,90,0.00,CLR,,0.00,WeatherDisplay:10.37,2013-03-01 06:06:00,
2013-03-01 00:07:00,23.0,20.5,30.50,NNW,337,12.6,16.1,90,0.00,CLR,,0.00,WeatherDisplay:10.37,2013-03-01 06:07:00,
2013-03-01 00:08:00,23.0,20.5,30.50,WNW,292,11.8,16.1,90,0.00,CLR,,0.00,WeatherDisplay:10.37,2013-03-01 06:08:00,
2013-03-01 00:12:00,23.0,20.5,30.50,NW,315,10.8,12.7,90,0.00,CLR,,0.00,WeatherDisplay:10.37,2013-03-01 06:12:00,
2013-03-01 00:13:00,23.0,20.5,30.50,WNW,292,11.4,12.7,90,0.00,CLR,,0.00,WeatherDisplay:10.37,2013-03-01 06:13:00,
2013-03-01 00:17:00,23.0,20.8,30.50,WNW,292,9.8,11.5,91,0.00,CLR,,0.00,WeatherDisplay:10.37,2013-03-01 06:17:00,
2013-03-01 00:18:00,23.0,20.5,30.50,NW,315,13.5,17.3,90,0.00,CLR,,0.00,WeatherDisplay:10.37,2013-03-01 06:18:00,
2013-03-01 00:22:00,23.0,20.5,30.50,NNW,337,13.1,16.1,90,0.00,CLR,,0.00,WeatherDisplay:10.37,2013-03-01 06:22:00,
2013-03-01 00:23:00,23.0,20.8,30.50,WNW,292,10.4,13.8,91,0.00,CLR,,0.00,WeatherDisplay:10.37,2013-03-01 06:23:00,
2013-03-01 00:27:00,23.0,20.5,30.50,WNW,292,10.8,11.5,90,0.00,CLR,,0.00,WeatherDisplay:10.37,2013-03-01 06:27:00,
2013-03-01 00:28:00,23.0,20.8,30.50,NNW,337,11.1,12.0,91,0.00,CLR,,0.00,WeatherDisplay:10.37,2013-03-01 06:28:00,
2013-03-01 00:32:00,23.0,20.5,30.50,NNW,337,11.9,15.0,90,0.00,CLR,,0.00,WeatherDisplay:10.37,2013-03-01 06:32:00,
2013-03-01 00:33:00,23.0,20.5,30.50,NNW,337,12.6,16.1,90,0.00,CLR,,0.00,WeatherDisplay:10.37,2013-03-01 06:33:00,
2013-03-01 00:37:00,23.0,20.5,30.50,NNW,337,12.6,16.1,90,0.00,CLR,,0.00,WeatherDisplay:10.37,2013-03-01 06:37:00,
2013-03-01 00:38:00,23.0,20.5,30.50,NNW,337,10.4,11.5,90,0.00,CLR,,0.00,WeatherDisplay:10.37,2013-03-01 06:38:00,
2013-03-01 00:42:00,23.0,20.5,30.51,WNW,292,10.4,13.8,90,0.00,CLR,,0.00,WeatherDisplay:10.37,2013-03-01 06:42:00,
2013-03-01 00:43:00,23.0,20.5,30.51,NW,315,10.4,13.8,90,0.00,CLR,,0.00,WeatherDisplay:10.37,2013-03-01 06:43:00,
2013-03-01 00:47:00,23.0,20.2,30.51,WNW,292,10.9,12.7,89,0.00,CLR,,0.00,WeatherDisplay:10.37,2013-03-01 06:47:00,
2013-03-01 00:48:00,23.0,20.5,30.51,NNW,337,7.9,12.7,90,0.00,CLR,,0.00,WeatherDisplay:10.37,2013-03-01 06:48:00,
2013-03-01 00:49:00,23.0,20.5,30.51,NW,315,7.9,9.2,90,0.00,CLR,,0.00,WeatherDisplay:10.37,2013-03-01 06:49:00,
2013-03-01 00:52:00,23.0,20.2,30.51,NNW,337,8.7,10.4,89,0.00,CLR,,0.00,WeatherDisplay:10.37,2013-03-01 06:52:00,
2013-03-01 00:53:00,23.0,20.5,30.51,NW,315,9.8,11.5,90,0.00,CLR,,0.00,WeatherDisplay:10.37,2013-03-01 06:53:00,
2013-03-01 00:54:00,23.0,20.5,30.51,NW,315,5.4,11.5,90,0.00,CLR,,0.00,WeatherDisplay:10.37,2013-03-01 06:54:00,
2013-03-01 00:57:00,23.0,20.2,30.51,NW,315,10.7,11.5,89,0.00,CLR,,0.00,WeatherDisplay:10.37,2013-03-01 06:57:00,
2013-03-01 00:58:00,23.0,20.2,30.51,WNW,292,11.9,17.3,89,0.00,CLR,,0.00,WeatherDisplay:10.37,2013-03-01 06:58:00,
2013-03-01 00:59:00,23.0,20.5,30.51,NW,315,9.9,13.8,90,0.00,CLR,,0.00,WeatherDisplay:10.37,2013-03-01 06:59:00,
2013-03-01 01:02:00,23.0,20.2,30.51,NW,315,12.7,16.1,89,0.00,CLR,,0.00,WeatherDisplay:10.37,2013-03-01 07:02:00,
2013-03-01 01:03:00,23.0,20.2,30.51,WNW,292,10.5,13.8,89,0.00,CLR,,0.00,WeatherDisplay:10.37,2013-03-01 07:03:00,
2013-03-01 01:04:00,23.0,20.2,30.51,NW,315,11.1,11.5,89,0.00,CLR,,0.00,WeatherDisplay:10.37,2013-03-01 07:04:00,
2013-03-01 01:07:00,23.0,20.5,30.51,NW,315,11.7,12.7,90,0.00,CLR,,0.00,WeatherDisplay:10.37,2013-03-01 07:07:00,
2013-03-01 01:08:00,23.0,20.5,30.51,NW,315,10.7,13.8,90,0.00,CLR,,0.00,WeatherDisplay:10.37,2013-03-01 07:08:00,
2013-03-01 01:09:00,23.0,20.5,30.51,NNW,337,9.7,11.5,90,0.00,CLR,,0.00,WeatherDisplay:10.37,2013-03-01 07:09:00,
2013-03-01 01:12:00,23.0,20.2,30.51,NNW,337,10.5,15.0,89,0.00,CLR,,0.00,WeatherDisplay:10.37,2013-03-01 07:12:00,
2013-03-01 01:13:00,23.0,20.2,30.51,NNW,337,8.8,14.0,89,0.00,CLR,,0.00,WeatherDisplay:10.37,2013-03-01 07:13:00,
2013-03-01 01:14:00,23.0,20.2,30.51,NW,315,13.5,18.4,89,0.00,CLR,,0.00,WeatherDisplay:10.37,2013-03-01 07:14:00,
2013-03-01 01:18:00,23.0,20.5,30.51,NW,315,12.0,12.7,90,0.00,CLR,,0.00,WeatherDisplay:10.37,2013-03-01 07:18:00,
2013-03-01 01:19:00,23.0,20.2,30.51,NW,315,12.1,17.3,89,0.00,CLR,,0.00,WeatherDisplay:10.37,2013-03-01 07:19:00,
2013-03-01 01:23:00,23.0,20.5,30.51,NW,315,9.8,11.5,90,0.00,CLR,,0.00,WeatherDisplay:10.37,2013-03-01 07:23:00,
2013-03-01 01:24:00,23.0,20.5,30.51,WNW,292,9.4,11.5,90,0.00,CLR,,0.00,WeatherDisplay:10.37,2013-03-01 07:24:00,
2013-03-01 01:28:00,23.0,20.5,30.51,NW,315,9.1,11.5,90,0.00,CLR,,0.00,WeatherDisplay:10.37,2013-03-01 07:28:00,
2013-03-01 01:29:00,23.0,20.5,30.51,NW,315,8.1,10.4,90,0.00,CLR,,0.00,WeatherDisplay:10.37,2013-03-01 07:29:00,
2013-03-01 01:30:00,23.0,20.5,30.51,NW,315,9.5,11.0,90,0.00,CLR,,0.00,WeatherDisplay:10.37,2013-03-01 07:30:00,
2013-03-01 01:33:00,23.0,20.5,30.51,NW,315,7.3,10.4,90,0.00,CLR,,0.00,WeatherDisplay:10.37,2013-03-01 07:33:00,
2013-03-01 01:34:00,23.0,20.5,30.51,NNW,337,11.5,15.0,90,0.00,CLR,,0.00,WeatherDisplay:10.37,2013-03-01 07:34:00,
2013-03-01 01:35:00,23.0,20.5,30.51,NNW,337,10.3,13.8,90,0.00,CLR,,0.00,WeatherDisplay:10.37,2013-03-01 07:35:00,
2013-03-01 01:39:00,23.0,20.5,30.51,NNW,337,9.9,13.8,90,0.00,CLR,,0.00,WeatherDisplay:10.37,2013-03-01 07:39:00,
2013-03-01 01:40:00,23.0,20.5,30.51,NNW,337,8.9,10.4,90,0.00,CLR,,0.00,WeatherDisplay:10.37,2013-03-01 07:40:00,
2013-03-01 01:44:00,23.0,20.5,30.51,NW,315,9.6,11.0,90,0.00,CLR,,0.00,WeatherDisplay:10.37,2013-03-01 07:44:00,
2013-03-01 01:45:00,23.0,20.5,30.51,NNW,337,9.9,12.7,90,0.00,CLR,,0.00,WeatherDisplay:10.37,2013-03-01 07:45:00,
2013-03-01 01:49:00,23.0,20.5,30.51,NNW,337,8.0,13.8,90,0.00,CLR,,0.00,WeatherDisplay:10.37,2013-03-01 07:49:00,
2013-03-01 01:50:00,23.0,20.5,30.51,NNW,337,9.7,11.5,90,0.00,CLR,,0.00,WeatherDisplay:10.37,2013-03-01 07:50:00,
2013-03-01 01:54:00,23.0,20.2,30.51,NNW,337,11.6,17.3,89,0.00,CLR,,0.00,WeatherDisplay:10.37,2013-03-01 07:54:00,
2013-03-01 01:55:00,23.0,20.2,30.51,NNW,337,9.7,17.3,89,0.00,CLR,,0.00,WeatherDisplay:10.37,2013-03-01 07:55:00,
2013-03-01 01:59:00,23.0,20.2,30.51,WNW,292,9.1,12.0,89,0.00,CLR,,0.00,WeatherDisplay:10.37,2013-03-01 07:59:00,
2013-03-01 02:00:00,23.0,20.2,30.51,NNW,337,10.5,12.7,89,0.00,CLR,,0.00,WeatherDisplay:10.37,2013-03-01 08:00:00,
2013-03-01 02:04:00,23.0,19.7,30.51,NNW,337,15.5,19.6,87,0.00,CLR,,0.00,WeatherDisplay:10.37,2013-03-01 08:04:00,
2013-03-01 02:05:00,23.0,19.7,30.51,NNW,337,15.6,19.6,87,0.00,CLR,,0.00,WeatherDisplay:10.37,2013-03-01 08:05:00,
2013-03-01 02:06:00,24.0,20.4,30.51,NNW,337,13.1,19.6,86,0.00,CLR,,0.00,WeatherDisplay:10.37,2013-03-01 08:06:00,
2013-03-01 02:10:00,23.0,20.2,30.51,NW,315,12.2,14.0,89,0.00,CLR,,0.00,WeatherDisplay:10.37,2013-03-01 08:10:00,
2013-03-01 02:11:00,23.0,20.0,30.51,NNW,337,12.5,17.3,88,0.00,CLR,,0.00,WeatherDisplay:10.37,2013-03-01 08:11:00,
2013-03-01 02:15:00,23.0,20.2,30.51,NNW,337,11.0,12.7,89,0.00,CLR,,0.00,WeatherDisplay:10.37,2013-03-01 08:15:00,
2013-03-01 02:16:00,23.0,20.2,30.51,NW,315,8.1,12.7,89,0.00,CLR,,0.00,WeatherDisplay:10.37,2013-03-01 08:16:00,
2013-03-01 02:20:00,23.0,20.2,30.51,NNW,337,10.7,12.7,89,0.00,CLR,,0.00,WeatherDisplay:10.37,2013-03-01 08:20:00,
2013-03-01 02:21:00,23.0,20.2,30.51,NNW,337,11.3,13.8,89,0.00,CLR,,0.00,WeatherDisplay:10.37,2013-03-01 08:21:00,
2013-03-01 02:25:00,23.0,20.5,30.51,NNW,337,8.7,10.4,90,0.00,CLR,,0.00,WeatherDisplay:10.37,2013-03-01 08:25:00,
2013-03-01 02:26:00,23.0,20.5,30.51,NW,315,7.1,9.2,90,0.00,CLR,,0.00,WeatherDisplay:10.37,2013-03-01 08:26:00,
2013-03-01 02:27:00,23.0,20.5,30.51,NNW,337,6.3,9.2,90,0.00,CLR,,0.00,WeatherDisplay:10.37,2013-03-01 08:27:00,
2013-03-01 02:30:00,23.0,20.5,30.51,NW,315,8.3,10.4,90,0.00,CLR,,0.00,WeatherDisplay:10.37,2013-03-01 08:30:00,
2013-03-01 02:31:00,23.0,20.8,30.51,NW,315,7.1,10.4,91,0.00,CLR,,0.00,WeatherDisplay:10.37,2013-03-01 08:31:00,
2013-03-01 02:32:00,23.0,20.5,30.51,NNW,337,8.3,9.2,90,0.00,CLR,,0.00,WeatherDisplay:10.37,2013-03-01 08:32:00,
2013-03-01 02:35:00,23.0,20.8,30.51,NW,315,10.6,11.5,91,0.00,CLR,,0.00,WeatherDisplay:10.37,2013-03-01 08:35:00,
2013-03-01 02:36:00,23.0,20.8,30.51,WNW,292,9.5,11.5,91,0.00,CLR,,0.00,WeatherDisplay:10.37,2013-03-01 08:36:00,
2013-03-01 02:37:00,23.0,20.8,30.51,NW,315,8.9,11.0,91,0.00,CLR,,0.00,WeatherDisplay:10.37,2013-03-01 08:37:00,
2013-03-01 02:40:00,23.0,20.8,30.51,NW,315,9.8,11.5,91,0.00,CLR,,0.00,WeatherDisplay:10.37,2013-03-01 08:40:00,
2013-03-01 02:41:00,23.0,20.8,30.51,NW,315,11.3,12.0,91,0.00,CLR,,0.00,WeatherDisplay:10.37,2013-03-01 08:41:00,
2013-03-01 02:42:00,23.0,20.5,30.51,NW,315,10.5,12.7,90,0.00,CLR,,0.00,WeatherDisplay:10.37,2013-03-01 08:42:00,
2013-03-01 02:45:00,23.0,20.8,30.51,NW,315,9.3,12.7,91,0.00,CLR,,0.00,WeatherDisplay:10.37,2013-03-01 08:45:00,
2013-03-01 02:46:00,23.0,21.0,30.51,NW,315,8.9,12.7,92,0.00,CLR,,0.00,WeatherDisplay:10.37,2013-03-01 08:46:00,
2013-03-01 02:47:00,23.0,21.0,30.51,WNW,292,8.9,11.5,92,0.00,CLR,,0.00,WeatherDisplay:10.37,2013-03-01 08:47:00,
2013-03-01 02:48:00,23.0,21.0,30.51,WNW,292,9.5,11.5,92,0.00,CLR,,0.00,WeatherDisplay:10.37,2013-03-01 08:48:00,
2013-03-01 02:50:00,23.0,21.0,30.51,NW,315,8.3,10.4,92,0.00,CLR,,0.00,WeatherDisplay:10.37,2013-03-01 08:50:00,
2013-03-01 02:51:00,23.0,21.0,30.51,NW,315,8.1,10.4,92,0.00,CLR,,0.00,WeatherDisplay:10.37,2013-03-01 08:51:00,
2013-03-01 02:52:00,23.0,21.0,30.51,WNW,292,7.6,9.2,92,0.00,CLR,,0.00,WeatherDisplay:10.37,2013-03-01 08:52:00,
2013-03-01 02:53:00,23.0,21.0,30.51,NW,315,9.8,11.5,92,0.00,CLR,,0.00,WeatherDisplay:10.37,2013-03-01 08:53:00,
2013-03-01 02:55:00,23.0,21.0,30.51,NW,315,8.7,10.0,92,0.00,CLR,,0.00,WeatherDisplay:10.37,2013-03-01 08:55:00,
2013-03-01 02:56:00,23.0,21.0,30.51,WNW,292,9.6,10.4,92,0.00,CLR,,0.00,WeatherDisplay:10.37,2013-03-01 08:56:00,
2013-03-01 02:57:00,23.0,21.0,30.51,NNW,337,10.2,12.0,92,0.00,CLR,,0.00,WeatherDisplay:10.37,2013-03-01 08:57:00,
2013-03-01 02:58:00,23.0,21.0,30.51,NNW,337,10.5,11.5,92,0.00,CLR,,0.00,WeatherDisplay:10.37,2013-03-01 08:58:00,
2013-03-01 03:00:00,23.0,21.0,30.51,NNW,337,10.4,11.5,92,0.00,CLR,,0.00,WeatherDisplay:10.37,2013-03-01 09:00:00,
2013-03-01 03:01:00,23.0,21.0,30.51,NW,315,10.0,12.7,92,0.00,CLR,,0.00,WeatherDisplay:10.37,2013-03-01 09:01:00,
2013-03-01 03:02:00,23.0,21.0,30.51,NNW,337,8.4,11.5,92,0.00,CLR,,0.00,WeatherDisplay:10.37,2013-03-01 09:02:00,
2013-03-01 03:03:00,23.0,21.0,30.51,NNW,337,10.1,11.5,92,0.00,CLR,,0.00,WeatherDisplay:10.37,2013-03-01 09:03:00,
2013-03-01 03:06:00,23.0,21.0,30.51,NNW,337,9.2,11.5,92,0.00,CLR,,0.00,WeatherDisplay:10.37,2013-03-01 09:06:00,
2013-03-01 03:07:00,23.0,21.0,30.51,WNW,292,8.0,11.0,92,0.00,CLR,,0.00,WeatherDisplay:10.37,2013-03-01 09:07:00,
2013-03-01 03:08:00,23.0,21.0,30.51,NNW,337,10.5,15.0,92,0.00,CLR,,0.00,WeatherDisplay:10.37,2013-03-01 09:08:00,
2013-03-01 03:11:00,23.0,21.0,30.51,NW,315,8.2,13.8,92,0.00,CLR,,0.00,WeatherDisplay:10.37,2013-03-01 09:11:00,
2013-03-01 03:12:00,23.0,21.0,30.50,NNW,337,8.3,9.2,92,0.00,CLR,,0.00,WeatherDisplay:10.37,2013-03-01 09:12:00,
2013-03-01 03:13:00,23.0,21.0,30.50,WNW,292,8.8,11.0,92,0.00,CLR,,0.00,WeatherDisplay:10.37,2013-03-01 09:13:00,
2013-03-01 03:16:00,23.0,21.0,30.50,NNW,337,10.0,13.8,92,0.00,CLR,,0.00,WeatherDisplay:10.37,2013-03-01 09:16:00,
2013-03-01 03:17:00,23.0,21.0,30.50,NW,315,10.4,11.5,92,0.00,CLR,,0.00,WeatherDisplay:10.37,2013-03-01 09:17:00,
2013-03-01 03:18:00,23.0,21.0,30.50,NW,315,9.4,11.5,92,0.00,CLR,,0.00,WeatherDisplay:10.37,2013-03-01 09:18:00,
2013-03-01 03:21:00,23.0,21.0,30.50,WNW,292,10.0,11.5,92,0.00,CLR,,0.00,WeatherDisplay:10.37,2013-03-01 09:21:00,
2013-03-01 03:22:00,23.0,21.0,30.50,WNW,292,10.6,11.5,92,0.00,CLR,,0.00,WeatherDisplay:10.37,2013-03-01 09:22:00,
2013-03-01 03:23:00,23.0,21.0,30.50,NW,315,11.1,12.7,92,0.00,CLR,,0.00,WeatherDisplay:10.37,2013-03-01 09:23:00,
2013-03-01 03:26:00,23.0,21.0,30.50,NW,315,9.8,11.5,92,0.00,CLR,,0.00,WeatherDisplay:10.37,2013-03-01 09:26:00,
2013-03-01 03:27:00,23.0,21.3,30.50,NW,315,8.7,11.5,93,0.00,CLR,,0.00,WeatherDisplay:10.37,2013-03-01 09:27:00,
2013-03-01 03:28:00,23.0,21.0,30.50,NW,315,9.9,11.5,92,0.00,CLR,,0.00,WeatherDisplay:10.37,2013-03-01 09:28:00,
2013-03-01 03:29:00,23.0,21.0,30.50,NW,315,10.3,11.5,92,0.00,CLR,,0.00,WeatherDisplay:10.37,2013-03-01 09:29:00,
2013-03-01 03:31:00,23.0,21.3,30.50,WNW,292,7.6,10.4,93,0.00,CLR,,0.00,WeatherDisplay:10.37,2013-03-01 09:31:00,
2013-03-01 03:32:00,23.0,21.0,30.50,WNW,292,10.6,13.8,92,0.00,CLR,,0.00,WeatherDisplay:10.37,2013-03-01 09:32:00,
2013-03-01 03:34:00,23.0,21.0,30.50,NNW,337,11.5,13.8,92,0.00,CLR,,0.00,WeatherDisplay:10.37,2013-03-01 09:34:00,
2013-03-01 03:36:00,23.0,21.0,30.50,WNW,292,10.9,13.8,92,0.00,CLR,,0.00,WeatherDisplay:10.37,2013-03-01 09:36:00,
2013-03-01 03:37:00,23.0,21.0,30.50,NW,315,10.7,11.5,92,0.00,CLR,,0.00,WeatherDisplay:10.37,2013-03-01 09:37:00,
2013-03-01 03:39:00,23.0,21.3,30.50,NW,315,8.8,11.5,93,0.00,CLR,,0.00,WeatherDisplay:10.37,2013-03-01 09:39:00,
2013-03-01 03:41:00,23.0,21.0,30.50,NNW,337,11.6,13.8,92,0.00,CLR,,0.00,WeatherDisplay:10.37,2013-03-01 09:41:00,
2013-03-01 03:42:00,23.0,21.0,30.50,NW,315,9.2,13.8,92,0.00,CLR,,0.00,WeatherDisplay:10.37,2013-03-01 09:42:00,
2013-03-01 03:44:00,23.0,21.0,30.50,NW,315,11.4,13.8,92,0.00,CLR,,0.00,WeatherDisplay:10.37,2013-03-01 09:44:00,
2013-03-01 03:46:00,23.0,21.0,30.50,NNW,337,10.4,11.5,92,0.00,CLR,,0.00,WeatherDisplay:10.37,2013-03-01 09:46:00,
2013-03-01 03:47:00,23.0,21.0,30.50,NW,315,8.7,11.5,92,0.00,CLR,,0.00,WeatherDisplay:10.37,2013-03-01 09:47:00,
2013-03-01 03:49:00,23.0,21.0,30.50,NNW,337,8.9,13.8,92,0.00,CLR,,0.00,WeatherDisplay:10.37,2013-03-01 09:49:00,
2013-03-01 03:51:00,23.0,21.0,30.50,NNW,337,8.9,11.5,92,0.00,CLR,,0.00,WeatherDisplay:10.37,2013-03-01 09:51:00,
2013-03-01 03:52:00,23.0,21.0,30.51,NW,315,8.8,10.4,92,0.00,CLR,,0.00,WeatherDisplay:10.37,2013-03-01 09:52:00,
2013-03-01 03:54:00,23.0,21.0,30.51,NNW,337,8.5,11.5,92,0.00,CLR,,0.00,WeatherDisplay:10.37,2013-03-01 09:54:00,
2013-03-01 03:56:00,23.0,21.0,30.51,NNW,337,10.0,11.5,92,0.00,CLR,,0.00,WeatherDisplay:10.37,2013-03-01 09:56:00,
2013-03-01 03:57:00,23.0,21.0,30.51,NNW,337,11.0,13.8,92,0.00,CLR,,0.00,WeatherDisplay:10.37,2013-03-01 09:57:00,
2013-03-01 03:59:00,23.0,21.0,30.51,NW,315,11.4,16.1,92,0.00,CLR,,0.00,WeatherDisplay:10.37,2013-03-01 09:59:00,
2013-03-01 04:00:00,23.0,21.0,30.51,NW,315,11.5,16.1,92,0.00,CLR,,0.00,WeatherDisplay:10.37,2013-03-01 10:00:00,
2013-03-01 04:01:00,23.0,21.0,30.50,NW,315,9.9,12.0,92,0.00,CLR,,0.00,WeatherDisplay:10.37,2013-03-01 10:01:00,
2013-03-01 04:02:00,23.0,21.0,30.50,NNW,337,10.5,11.5,92,0.00,CLR,,0.00,WeatherDisplay:10.37,2013-03-01 10:02:00,
2013-03-01 04:05:00,23.0,21.0,30.50,NW,315,9.9,10.4,92,0.00,CLR,,0.00,WeatherDisplay:10.37,2013-03-01 10:05:00,
2013-03-01 04:06:00,23.0,21.3,30.50,NW,315,7.6,10.4,93,0.00,CLR,,0.00,WeatherDisplay:10.37,2013-03-01 10:06:00,
2013-03-01 04:08:00,23.0,21.3,30.50,NW,315,9.0,10.4,93,0.00,CLR,,0.00,WeatherDisplay:10.37,2013-03-01 10:08:00,
2013-03-01 04:10:00,23.0,21.0,30.50,NNW,337,9.4,12.7,92,0.00,CLR,,0.00,WeatherDisplay:10.37,2013-03-01 10:10:00,
2013-03-01 04:12:00,23.0,21.0,30.51,NNW,337,9.8,11.5,92,0.00,CLR,,0.00,WeatherDisplay:10.37,2013-03-01 10:12:00,
2013-03-01 04:13:00,23.0,21.0,30.51,NNW,337,10.5,13.8,92,0.00,CLR,,0.00,WeatherDisplay:10.37,2013-03-01 10:13:00,
2013-03-01 04:15:00,23.0,21.0,30.51,NW,315,8.2,11.5,92,0.00,CLR,,0.00,WeatherDisplay:10.37,2013-03-01 10:15:00,
2013-03-01 04:17:00,23.0,21.0,30.51,NNW,337,10.1,13.0,92,0.00,CLR,,0.00,WeatherDisplay:10.37,2013-03-01 10:17:00,
2013-03-01 04:18:00,23.0,21.0,30.51,WNW,292,11.8,13.8,92,0.00,CLR,,0.00,WeatherDisplay:10.37,2013-03-01 10:18:00,
2013-03-01 04:20:00,23.0,21.0,30.51,NW,315,7.8,9.2,92,0.00,CLR,,0.00,WeatherDisplay:10.37,2013-03-01 10:20:00,
2013-03-01 04:22:00,23.0,21.0,30.51,NW,315,11.2,15.0,92,0.00,CLR,,0.00,WeatherDisplay:10.37,2013-03-01 10:22:00,
2013-03-01 04:23:00,23.0,21.0,30.51,WNW,292,9.5,11.5,92,0.00,CLR,,0.00,WeatherDisplay:10.37,2013-03-01 10:23:00,
2013-03-01 04:25:00,23.0,21.0,30.51,WNW,292,12.8,17.3,92,0.00,CLR,,0.00,WeatherDisplay:10.37,2013-03-01 10:25:00,
2013-03-01 04:26:00,23.0,21.0,30.51,NW,315,12.6,17.3,92,0.00,CLR,,0.00,WeatherDisplay:10.37,2013-03-01 10:26:00,
2013-03-01 04:27:00,23.0,21.0,30.51,NW,315,11.3,16.1,92,0.00,CLR,,0.00,WeatherDisplay:10.37,2013-03-01 10:27:00,
2013-03-01 04:28:00,23.0,21.0,30.51,NW,315,6.6,13.8,92,0.00,CLR,,0.00,WeatherDisplay:10.37,2013-03-01 10:28:00,
2013-03-01 04:31:00,23.0,20.8,30.51,NNW,337,13.8,18.4,91,0.00,CLR,,0.00,WeatherDisplay:10.37,2013-03-01 10:31:00,
2013-03-01 04:32:00,23.0,20.8,30.51,NW,315,12.0,17.3,91,0.00,CLR,,0.00,WeatherDisplay:10.37,2013-03-01 10:32:00,
2013-03-01 04:33:00,23.0,21.0,30.51,WNW,292,11.5,13.8,92,0.00,CLR,,0.00,WeatherDisplay:10.37,2013-03-01 10:33:00,
2013-03-01 04:36:00,23.0,21.0,30.51,NW,315,13.3,18.4,92,0.00,CLR,,0.00,WeatherDisplay:10.37,2013-03-01 10:36:00,
2013-03-01 04:37:00,23.0,21.0,30.51,NW,315,11.6,18.4,92,0.00,CLR,,0.00,WeatherDisplay:10.37,2013-03-01 10:37:00,
2013-03-01 04:38:00,23.0,21.0,30.51,NW,315,8.3,11.5,92,0.00,CLR,,0.00,WeatherDisplay:10.37,2013-03-01 10:38:00,
2013-03-01 04:41:00,23.0,21.0,30.51,NW,315,11.5,19.0,92,0.00,CLR,,0.00,WeatherDisplay:10.37,2013-03-01 10:41:00,
2013-03-01 04:42:00,23.0,21.0,30.51,NNW,337,15.1,19.6,92,0.00,CLR,,0.00,WeatherDisplay:10.37,2013-03-01 10:42:00,
2013-03-01 04:43:00,23.0,21.0,30.51,WNW,292,10.2,15.0,92,0.00,CLR,,0.00,WeatherDisplay:10.37,2013-03-01 10:43:00,
2013-03-01 04:45:00,23.0,21.3,30.51,WNW,292,11.5,13.8,93,0.00,CLR,,0.00,WeatherDisplay:10.37,2013-03-01 10:45:00,
2013-03-01 04:46:00,23.0,21.3,30.51,WNW,292,10.5,12.7,93,0.00,CLR,,0.00,WeatherDisplay:10.37,2013-03-01 10:46:00,
2013-03-01 04:48:00,22.0,20.3,30.51,WNW,292,12.3,14.0,93,0.00,CLR,,0.00,WeatherDisplay:10.37,2013-03-01 10:48:00,
2013-03-01 04:51:00,22.0,20.3,30.51,WNW,292,13.2,16.1,93,0.00,CLR,,0.00,WeatherDisplay:10.37,2013-03-01 10:51:00,
2013-03-01 04:53:00,22.0,20.3,30.51,WNW,292,12.8,15.0,93,0.00,CLR,,0.00,WeatherDisplay:10.37,2013-03-01 10:53:00,
2013-03-01 04:56:00,22.0,20.3,30.51,NNW,337,11.7,19.6,93,0.00,CLR,,0.00,WeatherDisplay:10.37,2013-03-01 10:56:00,
2013-03-01 04:58:00,22.0,20.3,30.51,NNW,337,11.6,16.1,93,0.00,CLR,,0.00,WeatherDisplay:10.37,2013-03-01 10:58:00,
2013-03-01 05:01:00,22.0,20.3,30.51,NW,315,12.1,17.0,93,0.00,CLR,,0.00,WeatherDisplay:10.37,2013-03-01 11:01:00,
2013-03-01 05:03:00,22.0,20.3,30.51,WNW,292,12.4,15.0,93,0.00,CLR,,0.00,WeatherDisplay:10.37,2013-03-01 11:03:00,
2013-03-01 05:06:00,22.0,20.3,30.51,NW,315,15.1,18.4,93,0.00,CLR,,0.00,WeatherDisplay:10.37,2013-03-01 11:06:00,
2013-03-01 05:08:00,22.0,20.3,30.51,NW,315,13.3,16.1,93,0.00,CLR,,0.00,WeatherDisplay:10.37,2013-03-01 11:08:00,
2013-03-01 05:11:00,22.0,20.5,30.51,WNW,292,12.2,18.0,94,0.00,CLR,,0.00,WeatherDisplay:10.37,2013-03-01 11:11:00,
2013-03-01 05:14:00,22.0,20.3,30.52,NW,315,16.4,19.0,93,0.00,CLR,,0.00,WeatherDisplay:10.37,2013-03-01 11:14:00,
2013-03-01 05:16:00,22.0,20.3,30.52,NW,315,13.9,17.3,93,0.00,CLR,,0.00,WeatherDisplay:10.37,2013-03-01 11:16:00,
2013-03-01 05:19:00,22.0,20.5,30.52,WNW,292,14.6,18.4,94,0.00,CLR,,0.00,WeatherDisplay:10.37,2013-03-01 11:19:00,
2013-03-01 05:21:00,22.0,20.5,30.52,NW,315,12.6,16.1,94,0.00,CLR,,0.00,WeatherDisplay:10.37,2013-03-01 11:21:00,
2013-03-01 05:24:00,22.0,20.3,30.52,NW,315,14.6,18.0,93,0.00,CLR,,0.00,WeatherDisplay:10.37,2013-03-01 11:24:00,
2013-03-01 05:26:00,22.0,20.3,30.52,WNW,292,15.0,17.0,93,0.00,CLR,,0.00,WeatherDisplay:10.37,2013-03-01 11:26:00,
2013-03-01 05:27:00,22.0,20.0,30.52,NW,315,16.7,16.7,92,0.00,CLR,,0.00,WeatherDisplay:10.37,2013-03-01 11:27:00,
2013-03-01 05:29:00,22.0,20.3,30.52,WNW,292,12.4,16.1,93,0.00,CLR,,0.00,WeatherDisplay:10.37,2013-03-01 11:29:00,
2013-03-01 05:30:00,22.0,20.3,30.52,NW,315,13.7,16.1,93,0.00,CLR,,0.00,WeatherDisplay:10.37,2013-03-01 11:30:00,
2013-03-01 05:31:00,22.0,20.3,30.52,NW,315,10.4,19.6,93,0.00,CLR,,0.00,WeatherDisplay:10.37,2013-03-01 11:31:00,
2013-03-01 05:32:00,22.0,20.3,30.52,NW,315,7.7,19.6,93,0.00,CLR,,0.00,WeatherDisplay:10.37,2013-03-01 11:32:00,
2013-03-01 05:34:00,22.0,20.5,30.52,WNW,292,14.0,18.4,94,0.00,CLR,,0.00,WeatherDisplay:10.37,2013-03-01 11:34:00,
2013-03-01 05:35:00,22.0,20.5,30.52,NW,315,12.5,18.4,94,0.00,CLR,,0.00,WeatherDisplay:10.37,2013-03-01 11:35:00,
2013-03-01 05:36:00,22.0,20.3,30.52,NW,315,14.7,19.6,93,0.00,CLR,,0.00,WeatherDisplay:10.37,2013-03-01 11:36:00,
2013-03-01 05:37:00,22.0,20.5,30.52,NW,315,12.4,16.1,94,0.00,CLR,,0.00,WeatherDisplay:10.37,2013-03-01 11:37:00,
2013-03-01 05:39:00,22.0,20.3,30.52,NW,315,14.4,18.4,93,0.00,CLR,,0.00,WeatherDisplay:10.37,2013-03-01 11:39:00,
2013-03-01 05:40:00,22.0,20.5,30.52,NNW,337,12.4,18.4,94,0.00,CLR,,0.00,WeatherDisplay:10.37,2013-03-01 11:40:00,
2013-03-01 05:41:00,22.0,20.5,30.52,NW,315,13.3,18.0,94,0.00,CLR,,0.00,WeatherDisplay:10.37,2013-03-01 11:41:00,
2013-03-01 05:42:00,22.0,20.3,30.51,NW,315,15.2,18.4,93,0.00,CLR,,0.00,WeatherDisplay:10.37,2013-03-01 11:42:00,
2013-03-01 05:44:00,22.0,20.3,30.51,NW,315,1.6,12.7,93,0.00,CLR,,0.00,WeatherDisplay:10.37,2013-03-01 11:44:00,
2013-03-01 05:45:00,22.0,20.5,30.51,NW,315,11.1,16.1,94,0.00,CLR,,0.00,WeatherDisplay:10.37,2013-03-01 11:45:00,
2013-03-01 05:46:00,22.0,20.5,30.51,NW,315,14.5,17.3,94,0.00,CLR,,0.00,WeatherDisplay:10.37,2013-03-01 11:46:00,
2013-03-01 05:47:00,22.0,20.5,30.51,NW,315,10.6,17.3,94,0.00,CLR,,0.00,WeatherDisplay:10.37,2013-03-01 11:47:00,
2013-03-01 05:49:00,22.0,20.3,30.51,NNW,337,16.8,19.6,93,0.00,CLR,,0.00,WeatherDisplay:10.37,2013-03-01 11:49:00,
2013-03-01 05:50:00,22.0,20.5,30.51,NW,315,13.4,19.6,94,0.00,CLR,,0.00,WeatherDisplay:10.37,2013-03-01 11:50:00,
2013-03-01 05:51:00,22.0,20.3,30.52,WNW,292,12.5,17.3,93,0.00,CLR,,0.00,WeatherDisplay:10.37,2013-03-01 11:51:00,
2013-03-01 05:52:00,22.0,20.3,30.52,NNW,337,12.2,16.1,93,0.00,CLR,,0.00,WeatherDisplay:10.37,2013-03-01 11:52:00,
2013-03-01 05:54:00,22.0,20.5,30.52,NW,315,12.6,16.1,94,0.00,CLR,,0.00,WeatherDisplay:10.37,2013-03-01 11:54:00,
2013-03-01 05:57:00,22.0,20.3,30.52,WNW,292,13.6,17.3,93,0.00,CLR,,0.00,WeatherDisplay:10.37,2013-03-01 11:57:00,
2013-03-01 05:58:00,22.0,20.5,30.52,WNW,292,10.5,17.3,94,0.00,CLR,,0.00,WeatherDisplay:10.37,2013-03-01 11:58:00,
2013-03-01 05:59:00,22.0,20.5,30.52,NW,315,12.0,16.0,94,0.00,CLR,,0.00,WeatherDisplay:10.37,2013-03-01 11:59:00,
2013-03-01 06:02:00,22.0,20.5,30.52,NNW,337,9.9,11.5,94,0.00,CLR,,0.00,WeatherDisplay:10.37,2013-03-01 12:02:00,
2013-03-01 06:03:00,22.0,20.5,30.52,WNW,292,10.9,13.8,94,0.00,CLR,,0.00,WeatherDisplay:10.37,2013-03-01 12:03:00,
2013-03-01 06:04:00,22.0,20.5,30.52,WNW,292,13.0,18.4,94,0.00,CLR,,0.00,WeatherDisplay:10.37,2013-03-01 12:04:00,
2013-03-01 06:07:00,22.0,20.5,30.52,WNW,292,10.3,13.8,94,0.00,CLR,,0.00,WeatherDisplay:10.37,2013-03-01 12:07:00,
2013-03-01 06:08:00,22.0,20.5,30.52,WNW,292,12.3,13.8,94,0.00,CLR,,0.00,WeatherDisplay:10.37,2013-03-01 12:08:00,
2013-03-01 06:09:00,22.0,20.5,30.52,WNW,292,12.3,15.0,94,0.00,CLR,,0.00,WeatherDisplay:10.37,2013-03-01 12:09:00,
2013-03-01 06:12:00,22.0,20.5,30.52,NW,315,13.1,18.4,94,0.00,CLR,,0.00,WeatherDisplay:10.37,2013-03-01 12:12:00,
2013-03-01 06:13:00,22.0,20.5,30.52,WNW,292,6.5,18.4,94,0.00,CLR,,0.00,WeatherDisplay:10.37,2013-03-01 12:13:00,
2013-03-01 06:15:00,22.0,20.5,30.52,WNW,292,11.6,16.1,94,0.00,CLR,,0.00,WeatherDisplay:10.37,2013-03-01 12:15:00,
2013-03-01 06:17:00,22.0,20.5,30.52,NNW,337,11.1,16.1,94,0.00,CLR,,0.00,WeatherDisplay:10.37,2013-03-01 12:17:00,
2013-03-01 06:18:00,22.0,20.5,30.52,WNW,292,12.6,16.1,94,0.00,CLR,,0.00,WeatherDisplay:10.37,2013-03-01 12:18:00,
2013-03-01 06:20:00,22.0,20.5,30.52,NW,315,15.6,16.0,94,0.00,CLR,,0.00,WeatherDisplay:10.37,2013-03-01 12:20:00,
2013-03-01 06:22:00,22.0,20.5,30.52,WNW,292,12.1,15.0,94,0.00,CLR,,0.00,WeatherDisplay:10.37,2013-03-01 12:22:00,
2013-03-01 06:23:00,22.0,20.5,30.52,NW,315,14.0,18.4,94,0.00,CLR,,0.00,WeatherDisplay:10.37,2013-03-01 12:23:00,
2013-03-01 06:26:00,22.0,20.5,30.52,WNW,292,10.1,13.0,94,0.00,CLR,,0.00,WeatherDisplay:10.37,2013-03-01 12:26:00,
2013-03-01 06:28:00,22.0,20.5,30.52,NW,315,11.9,18.4,94,0.00,CLR,,0.00,WeatherDisplay:10.37,2013-03-01 12:28:00,
2013-03-01 06:29:00,22.0,20.5,30.52,WNW,292,14.3,17.3,94,0.00,CLR,,0.00,WeatherDisplay:10.37,2013-03-01 12:29:00,
2013-03-01 06:31:00,22.0,20.5,30.52,WNW,292,13.9,19.6,94,0.00,CLR,,0.00,WeatherDisplay:10.37,2013-03-01 12:31:00,
2013-03-01 06:33:00,22.0,20.5,30.53,NW,315,12.1,15.0,94,0.00,CLR,,0.00,WeatherDisplay:10.37,2013-03-01 12:33:00,
2013-03-01 06:34:00,22.0,20.8,30.53,NW,315,11.5,13.8,95,0.00,CLR,,0.00,WeatherDisplay:10.37,2013-03-01 12:34:00,
2013-03-01 06:36:00,22.0,20.8,30.53,NW,315,11.0,13.8,95,0.00,CLR,,0.00,WeatherDisplay:10.37,2013-03-01 12:36:00,
2013-03-01 06:38:00,22.0,20.8,30.53,NW,315,11.3,14.0,95,0.00,CLR,,0.00,WeatherDisplay:10.37,2013-03-01 12:38:00,
2013-03-01 06:39:00,22.0,20.8,30.53,WNW,292,13.6,16.1,95,0.00,CLR,,0.00,WeatherDisplay:10.37,2013-03-01 12:39:00,
2013-03-01 06:41:00,22.0,20.8,30.53,NW,315,11.5,13.8,95,0.00,CLR,,0.00,WeatherDisplay:10.37,2013-03-01 12:41:00,
2013-03-01 06:43:00,22.0,20.8,30.53,NW,315,10.3,13.8,95,0.00,CLR,,0.00,WeatherDisplay:10.37,2013-03-01 12:43:00,
2013-03-01 06:44:00,22.0,20.8,30.53,WNW,292,10.2,14.0,95,0.00,CLR,,0.00,WeatherDisplay:10.37,2013-03-01 12:44:00,
2013-03-01 06:46:00,22.0,20.5,30.53,WNW,292,14.4,18.4,94,0.00,CLR,,0.00,WeatherDisplay:10.37,2013-03-01 12:46:00,
2013-03-01 06:48:00,22.0,20.5,30.53,WNW,292,13.7,17.3,94,0.00,CLR,,0.00,WeatherDisplay:10.37,2013-03-01 12:48:00,
2013-03-01 06:49:00,22.0,20.8,30.53,NW,315,13.7,16.1,95,0.00,CLR,,0.00,WeatherDisplay:10.37,2013-03-01 12:49:00,
2013-03-01 06:51:00,22.0,20.5,30.53,WNW,292,14.3,17.3,94,0.00,CLR,,0.00,WeatherDisplay:10.37,2013-03-01 12:51:00,
2013-03-01 06:53:00,22.0,20.8,30.53,WNW,292,10.1,12.7,95,0.00,CLR,,0.00,WeatherDisplay:10.37,2013-03-01 12:53:00,
2013-03-01 06:54:00,22.0,20.8,30.53,NW,315,6.2,10.4,95,0.00,CLR,,0.00,WeatherDisplay:10.37,2013-03-01 12:54:00,
2013-03-01 06:55:00,22.0,20.8,30.53,NW,315,6.5,15.0,95,0.00,CLR,,0.00,WeatherDisplay:10.37,2013-03-01 12:55:00,
2013-03-01 06:56:00,22.0,20.8,30.53,NNW,337,13.5,16.1,95,0.00,CLR,,0.00,WeatherDisplay:10.37,2013-03-01 12:56:00,
2013-03-01 06:59:00,22.0,20.8,30.53,WNW,292,11.6,13.0,95,0.00,CLR,,0.00,WeatherDisplay:10.37,2013-03-01 12:59:00,
2013-03-01 07:00:00,22.0,20.8,30.53,NW,315,11.1,12.7,95,0.00,CLR,,0.00,WeatherDisplay:10.37,2013-03-01 13:00:00,
2013-03-01 07:01:00,22.0,20.8,30.53,WNW,292,11.0,14.0,95,0.00,CLR,,0.00,WeatherDisplay:10.37,2013-03-01 13:01:00,
2013-03-01 07:04:00,22.0,20.8,30.54,NW,315,9.7,11.5,95,0.00,CLR,,0.00,WeatherDisplay:10.37,2013-03-01 13:04:00,
2013-03-01 07:05:00,22.0,20.8,30.54,WNW,292,11.1,15.0,95,0.00,CLR,,0.00,WeatherDisplay:10.37,2013-03-01 13:05:00,
2013-03-01 07:06:00,22.0,20.8,30.54,NW,315,11.8,15.0,95,0.00,CLR,,0.00,WeatherDisplay:10.37,2013-03-01 13:06:00,
2013-03-01 07:09:00,22.0,20.5,30.54,NNW,337,11.6,17.3,94,0.00,CLR,,0.00,WeatherDisplay:10.37,2013-03-01 13:09:00,
2013-03-01 07:10:00,22.0,20.8,30.54,NW,315,10.9,17.3,95,0.00,CLR,,0.00,WeatherDisplay:10.37,2013-03-01 13:10:00,
2013-03-01 07:11:00,22.0,20.8,30.54,NNW,337,8.9,10.4,95,0.00,CLR,,0.00,WeatherDisplay:10.37,2013-03-01 13:11:00,
2013-03-01 07:14:00,22.0,20.5,30.54,NW,315,11.0,13.8,94,0.00,CLR,,0.00,WeatherDisplay:10.37,2013-03-01 13:14:00,
2013-03-01 07:15:00,22.0,20.5,30.54,WNW,292,12.0,13.8,94,0.00,CLR,,0.00,WeatherDisplay:10.37,2013-03-01 13:15:00,
2013-03-01 07:16:00,22.0,20.5,30.54,NNW,337,10.7,12.7,94,0.00,CLR,,0.00,WeatherDisplay:10.37,2013-03-01 13:16:00,
2013-03-01 07:19:00,22.0,20.5,30.54,NW,315,14.7,16.1,94,0.00,CLR,,0.00,WeatherDisplay:10.37,2013-03-01 13:19:00,
2013-03-01 07:20:00,22.0,20.5,30.54,NNW,337,14.0,19.6,94,0.00,CLR,,0.00,WeatherDisplay:10.37,2013-03-01 13:20:00,
2013-03-01 07:22:00,22.0,20.5,30.54,NW,315,11.3,17.3,94,0.00,CLR,,0.00,WeatherDisplay:10.37,2013-03-01 13:22:00,
2013-03-01 07:24:00,22.0,20.5,30.54,NW,315,12.9,17.0,94,0.00,CLR,,0.00,WeatherDisplay:10.37,2013-03-01 13:24:00,
2013-03-01 07:25:00,22.0,20.5,30.54,NW,315,14.2,18.4,94,0.00,CLR,,0.00,WeatherDisplay:10.37,2013-03-01 13:25:00,
2013-03-01 07:27:00,22.0,20.5,30.54,WNW,292,9.6,11.5,94,0.00,CLR,,0.00,WeatherDisplay:10.37,2013-03-01 13:27:00,
2013-03-01 07:30:00,22.0,20.5,30.54,NW,315,9.5,13.0,94,0.00,CLR,,0.00,WeatherDisplay:10.37,2013-03-01 13:30:00,
2013-03-01 07:31:00,22.0,20.5,30.54,NW,315,11.6,15.0,94,0.00,CLR,,0.00,WeatherDisplay:10.37,2013-03-01 13:31:00,
2013-03-01 07:32:00,22.0,20.3,30.55,NW,315,15.5,19.6,93,0.00,CLR,,0.00,WeatherDisplay:10.37,2013-03-01 13:32:00,
2013-03-01 07:35:00,22.0,20.5,30.55,NW,315,14.8,19.6,94,0.00,CLR,,0.00,WeatherDisplay:10.37,2013-03-01 13:35:00,
2013-03-01 07:36:00,22.0,20.5,30.55,WNW,292,13.1,19.6,94,0.00,CLR,,0.00,WeatherDisplay:10.37,2013-03-01 13:36:00,
2013-03-01 07:37:00,22.0,20.5,30.55,WNW,292,10.0,13.8,94,0.00,CLR,,0.00,WeatherDisplay:10.37,2013-03-01 13:37:00,
2013-03-01 07:40:00,22.0,20.5,30.55,WNW,292,12.9,16.1,94,0.00,CLR,,0.00,WeatherDisplay:10.37,2013-03-01 13:40:00,
2013-03-01 07:41:00,22.0,20.8,30.55,NW,315,10.4,16.1,95,0.00,CLR,,0.00,WeatherDisplay:10.37,2013-03-01 13:41:00,
2013-03-01 07:42:00,22.0,20.5,30.54,WNW,292,10.7,12.0,94,0.00,CLR,,0.00,WeatherDisplay:10.37,2013-03-01 13:42:00,
2013-03-01 07:45:00,22.0,20.5,30.54,NW,315,12.8,16.1,94,0.00,CLR,,0.00,WeatherDisplay:10.37,2013-03-01 13:45:00,
2013-03-01 07:46:00,22.0,20.5,30.54,WNW,292,11.5,14.0,94,0.00,CLR,,0.00,WeatherDisplay:10.37,2013-03-01 13:46:00,
2013-03-01 07:47:00,22.0,20.5,30.54,NW,315,12.5,15.0,94,0.00,CLR,,0.00,WeatherDisplay:10.37,2013-03-01 13:47:00,
2013-03-01 07:50:00,22.0,20.5,30.54,NW,315,13.7,16.1,94,0.00,CLR,,0.00,WeatherDisplay:10.37,2013-03-01 13:50:00,
2013-03-01 07:51:00,22.0,20.5,30.54,NNW,337,10.5,15.0,94,0.00,CLR,,0.00,WeatherDisplay:10.37,2013-03-01 13:51:00,
2013-03-01 07:52:00,22.0,20.5,30.55,NW,315,15.8,19.6,94,0.00,CLR,,0.00,WeatherDisplay:10.37,2013-03-01 13:52:00,
2013-03-01 07:55:00,22.0,20.5,30.55,NNW,337,16.1,18.4,94,0.00,CLR,,0.00,WeatherDisplay:10.37,2013-03-01 13:55:00,
2013-03-01 07:56:00,22.0,20.5,30.55,NW,315,14.6,18.4,94,0.00,CLR,,0.00,WeatherDisplay:10.37,2013-03-01 13:56:00,
2013-03-01 07:57:00,22.0,20.5,30.55,NNW,337,13.4,17.3,94,0.00,CLR,,0.00,WeatherDisplay:10.37,2013-03-01 13:57:00,
2013-03-01 08:00:00,22.0,20.5,30.55,NW,315,13.8,18.4,94,0.00,CLR,,0.00,WeatherDisplay:10.37,2013-03-01 14:00:00,
2013-03-01 08:01:00,22.0,20.5,30.55,NW,315,14.1,15.0,94,0.00,CLR,,0.00,WeatherDisplay:10.37,2013-03-01 14:01:00,
2013-03-01 08:02:00,22.0,20.5,30.55,NNW,337,14.1,17.0,94,0.00,CLR,,0.00,WeatherDisplay:10.37,2013-03-01 14:02:00,
2013-03-01 08:05:00,22.0,20.5,30.55,NNW,337,10.9,15.0,94,0.00,CLR,,0.00,WeatherDisplay:10.37,2013-03-01 14:05:00,
2013-03-01 08:06:00,22.0,20.5,30.55,NNW,337,12.4,15.0,94,0.00,CLR,,0.00,WeatherDisplay:10.37,2013-03-01 14:06:00,
2013-03-01 08:07:00,22.0,20.5,30.55,NNW,337,11.8,15.0,94,0.00,CLR,,0.00,WeatherDisplay:10.37,2013-03-01 14:07:00,
2013-03-01 08:10:00,22.0,20.5,30.55,NW,315,10.6,13.0,94,0.00,CLR,,0.00,WeatherDisplay:10.37,2013-03-01 14:10:00,
2013-03-01 08:12:00,22.0,20.5,30.55,NW,315,10.6,14.0,94,0.00,CLR,,0.00,WeatherDisplay:10.37,2013-03-01 14:12:00,
2013-03-01 08:13:00,22.0,20.5,30.55,NW,315,13.7,16.1,94,0.00,CLR,,0.00,WeatherDisplay:10.37,2013-03-01 14:13:00,
2013-03-01 08:15:00,22.0,20.5,30.55,NW,315,10.1,16.1,94,0.00,CLR,,0.00,WeatherDisplay:10.37,2013-03-01 14:15:00,
2013-03-01 08:17:00,22.0,20.5,30.55,NNW,337,11.8,12.7,94,0.00,CLR,,0.00,WeatherDisplay:10.37,2013-03-01 14:17:00,
2013-03-01 08:18:00,22.0,20.5,30.55,WNW,292,13.0,17.3,94,0.00,CLR,,0.00,WeatherDisplay:10.37,2013-03-01 14:18:00,
2013-03-01 08:20:00,22.0,20.5,30.55,NNW,337,9.5,11.5,94,0.00,CLR,,0.00,WeatherDisplay:10.37,2013-03-01 14:20:00,
2013-03-01 08:22:00,23.0,21.5,30.56,NNW,337,7.6,11.5,94,0.00,CLR,,0.00,WeatherDisplay:10.37,2013-03-01 14:22:00,
2013-03-01 08:23:00,23.0,21.5,30.56,NW,315,9.7,11.5,94,0.00,CLR,,0.00,WeatherDisplay:10.37,2013-03-01 14:23:00,
2013-03-01 08:26:00,23.0,21.3,30.56,NNW,337,11.4,12.7,93,0.00,CLR,,0.00,WeatherDisplay:10.37,2013-03-01 14:26:00,
2013-03-01 08:27:00,23.0,21.0,30.56,NNW,337,12.8,15.0,92,0.00,CLR,,0.00,WeatherDisplay:10.37,2013-03-01 14:27:00,
2013-03-01 08:28:00,23.0,21.3,30.56,NW,315,11.4,13.8,93,0.00,CLR,,0.00,WeatherDisplay:10.37,2013-03-01 14:28:00,
2013-03-01 08:31:00,23.0,21.3,30.56,NW,315,11.1,12.7,93,0.00,CLR,,0.00,WeatherDisplay:10.37,2013-03-01 14:31:00,
2013-03-01 08:32:00,23.0,21.3,30.55,NNW,337,12.2,17.3,93,0.00,CLR,,0.00,WeatherDisplay:10.37,2013-03-01 14:32:00,
2013-03-01 08:33:00,23.0,21.0,30.55,NNW,337,12.4,16.1,92,0.00,CLR,,0.00,WeatherDisplay:10.37,2013-03-01 14:33:00,
2013-03-01 08:36:00,23.0,21.0,30.55,NNW,337,14.6,19.6,92,0.00,CLR,,0.00,WeatherDisplay:10.37,2013-03-01 14:36:00,
2013-03-01 08:37:00,23.0,21.3,30.55,NW,315,12.1,16.1,93,0.00,CLR,,0.00,WeatherDisplay:10.37,2013-03-01 14:37:00,
2013-03-01 08:38:00,23.0,21.5,30.55,WNW,292,12.0,15.0,94,0.00,CLR,,0.00,WeatherDisplay:10.37,2013-03-01 14:38:00,
2013-03-01 08:41:00,23.0,21.5,30.55,NNW,337,13.1,16.1,94,0.00,CLR,,0.00,WeatherDisplay:10.37,2013-03-01 14:41:00,
2013-03-01 08:42:00,23.0,21.5,30.55,NNW,337,9.9,16.1,94,0.00,CLR,,0.00,WeatherDisplay:10.37,2013-03-01 14:42:00,
2013-03-01 08:43:00,23.0,21.5,30.55,NNW,337,9.5,12.7,94,0.00,CLR,,0.00,WeatherDisplay:10.37,2013-03-01 14:43:00,
2013-03-01 08:46:00,23.0,21.5,30.55,NW,315,9.5,13.8,94,0.00,CLR,,0.00,WeatherDisplay:10.37,2013-03-01 14:46:00,
2013-03-01 08:48:00,23.0,21.5,30.55,NNW,337,11.9,14.0,94,0.00,CLR,,0.00,WeatherDisplay:10.37,2013-03-01 14:48:00,
2013-03-01 08:51:00,23.0,21.5,30.55,NNW,337,14.9,17.3,94,0.00,CLR,,0.00,WeatherDisplay:10.37,2013-03-01 14:51:00,
2013-03-01 08:53:00,23.0,21.5,30.55,NNW,337,10.2,13.0,94,0.00,CLR,,0.00,WeatherDisplay:10.37,2013-03-01 14:53:00,
2013-03-01 08:56:00,23.0,21.5,30.55,NNW,337,13.4,13.8,94,0.00,CLR,,0.00,WeatherDisplay:10.37,2013-03-01 14:56:00,
2013-03-01 08:58:00,23.0,21.5,30.55,NNW,337,12.3,15.0,94,0.00,CLR,,0.00,WeatherDisplay:10.37,2013-03-01 14:58:00,
2013-03-01 08:59:00,23.0,21.5,30.55,NNW,337,13.0,15.0,94,0.00,CLR,,0.00,WeatherDisplay:10.37,2013-03-01 14:59:00,
2013-03-01 09:01:00,23.0,21.5,30.56,NNW,337,10.4,16.1,94,0.00,CLR,,0.00,WeatherDisplay:10.37,2013-03-01 15:01:00,
2013-03-01 09:03:00,23.0,21.3,30.56,NNW,337,13.1,16.1,93,0.00,CLR,,0.00,WeatherDisplay:10.37,2013-03-01 15:03:00,
2013-03-01 09:04:00,23.0,21.3,30.56,NNW,337,13.7,16.1,93,0.00,CLR,,0.00,WeatherDisplay:10.37,2013-03-01 15:04:00,
2013-03-01 09:06:00,23.0,21.5,30.56,North,360,10.6,15.0,94,0.00,CLR,,0.00,WeatherDisplay:10.37,2013-03-01 15:06:00,
2013-03-01 09:08:00,23.0,21.5,30.56,NNW,337,10.5,12.7,94,0.00,CLR,,0.00,WeatherDisplay:10.37,2013-03-01 15:08:00,
2013-03-01 09:09:00,23.0,21.3,30.56,NNW,337,10.2,12.7,93,0.00,CLR,,0.00,WeatherDisplay:10.37,2013-03-01 15:09:00,
2013-03-01 09:12:00,23.0,21.3,30.56,NNW,337,10.6,13.8,93,0.00,CLR,,0.00,WeatherDisplay:10.37,2013-03-01 15:12:00,
2013-03-01 09:13:00,23.0,21.5,30.56,NNW,337,9.7,11.5,94,0.00,CLR,,0.00,WeatherDisplay:10.37,2013-03-01 15:13:00,
2013-03-01 09:14:00,23.0,21.5,30.56,NW,315,9.0,11.5,94,0.00,CLR,,0.00,WeatherDisplay:10.37,2013-03-01 15:14:00,
2013-03-01 09:17:00,23.0,21.0,30.56,NNW,337,13.0,19.6,92,0.00,CLR,,0.00,WeatherDisplay:10.37,2013-03-01 15:17:00,
2013-03-01 09:18:00,23.0,21.0,30.56,North,360,14.6,19.6,92,0.00,CLR,,0.00,WeatherDisplay:10.37,2013-03-01 15:18:00,
2013-03-01 09:19:00,23.0,21.0,30.56,NNW,337,15.0,17.3,92,0.00,CLR,,0.00,WeatherDisplay:10.37,2013-03-01 15:19:00,
2013-03-01 09:22:00,24.0,21.8,30.56,NNW,337,10.6,15.0,91,0.00,CLR,,0.00,WeatherDisplay:10.37,2013-03-01 15:22:00,
2013-03-01 09:23:00,24.0,21.8,30.56,North,360,9.7,15.0,91,0.00,CLR,,0.00,WeatherDisplay:10.37,2013-03-01 15:23:00,
2013-03-01 09:24:00,24.0,22.0,30.56,North,360,10.1,11.5,92,0.00,CLR,,0.00,WeatherDisplay:10.37,2013-03-01 15:24:00,
2013-03-01 09:27:00,24.0,21.8,30.56,NNW,337,8.4,12.7,91,0.00,CLR,,0.00,WeatherDisplay:10.37,2013-03-01 15:27:00,
2013-03-01 09:29:00,24.0,21.8,30.56,NW,315,9.3,13.0,91,0.00,CLR,,0.00,WeatherDisplay:10.37,2013-03-01 15:29:00,
2013-03-01 09:32:00,24.0,21.5,30.56,North,360,12.2,15.0,90,0.00,CLR,,0.00,WeatherDisplay:10.37,2013-03-01 15:32:00,
2013-03-01 09:34:00,24.0,21.5,30.56,NNW,337,10.6,16.1,90,0.00,CLR,,0.00,WeatherDisplay:10.37,2013-03-01 15:34:00,
2013-03-01 09:35:00,24.0,21.5,30.56,NNW,337,8.6,13.8,90,0.00,CLR,,0.00,WeatherDisplay:10.37,2013-03-01 15:35:00,
2013-03-01 09:38:00,24.0,21.2,30.56,NNW,337,10.5,13.8,89,0.00,CLR,,0.00,WeatherDisplay:10.37,2013-03-01 15:38:00,
2013-03-01 09:39:00,24.0,21.2,30.56,NNW,337,16.8,23.0,89,0.00,CLR,,0.00,WeatherDisplay:10.37,2013-03-01 15:39:00,
2013-03-01 09:40:00,24.0,21.2,30.56,NNW,337,16.8,20.7,89,0.00,CLR,,0.00,WeatherDisplay:10.37,2013-03-01 15:40:00,
2013-03-01 09:43:00,24.0,21.5,30.55,NNW,337,11.6,15.0,90,0.00,CLR,,0.00,WeatherDisplay:10.37,2013-03-01 15:43:00,
2013-03-01 09:44:00,24.0,21.8,30.55,NNW,337,8.4,11.5,91,0.00,CLR,,0.00,WeatherDisplay:10.37,2013-03-01 15:44:00,
2013-03-01 09:45:00,24.0,21.2,30.55,NW,315,14.7,19.6,89,0.00,CLR,,0.00,WeatherDisplay:10.37,2013-03-01 15:45:00,
2013-03-01 09:48:00,24.0,21.2,30.55,NW,315,14.2,19.6,89,0.00,CLR,,0.00,WeatherDisplay:10.37,2013-03-01 15:48:00,
2013-03-01 09:49:00,24.0,21.2,30.55,NNW,337,14.2,19.6,89,0.00,CLR,,0.00,WeatherDisplay:10.37,2013-03-01 15:49:00,
2013-03-01 09:50:00,24.0,21.2,30.55,NNW,337,14.6,18.4,89,0.00,CLR,,0.00,WeatherDisplay:10.37,2013-03-01 15:50:00,
2013-03-01 09:53:00,24.0,21.0,30.55,NW,315,14.9,21.9,88,0.00,CLR,,0.00,WeatherDisplay:10.37,2013-03-01 15:53:00,
2013-03-01 09:54:00,24.0,21.2,30.55,NNW,337,14.0,20.7,89,0.00,CLR,,0.00,WeatherDisplay:10.37,2013-03-01 15:54:00,
2013-03-01 09:55:00,24.0,21.2,30.55,NNW,337,10.7,19.6,89,0.00,CLR,,0.00,WeatherDisplay:10.37,2013-03-01 15:55:00,
2013-03-01 09:58:00,24.0,21.0,30.55,NNW,337,8.9,20.7,88,0.00,CLR,,0.00,WeatherDisplay:10.37,2013-03-01 15:58:00,
2013-03-01 09:59:00,25.0,21.7,30.55,NE,45,14.5,18.4,87,0.00,CLR,,0.00,WeatherDisplay:10.37,2013-03-01 15:59:00,
2013-03-01 10:00:00,25.0,21.4,30.55,NNW,337,15.0,19.6,86,0.00,CLR,,0.00,WeatherDisplay:10.37,2013-03-01 16:00:00,
2013-03-01 10:03:00,25.0,21.4,30.55,NNW,337,13.9,19.6,86,0.00,CLR,,0.00,WeatherDisplay:10.37,2013-03-01 16:03:00,
2013-03-01 10:05:00,25.0,21.4,30.55,NNW,337,11.5,17.3,86,0.00,CLR,,0.00,WeatherDisplay:10.37,2013-03-01 16:05:00,
2013-03-01 10:06:00,25.0,21.4,30.55,NNW,337,13.4,13.8,86,0.00,CLR,,0.00,WeatherDisplay:10.37,2013-03-01 16:06:00,
2013-03-01 10:08:00,25.0,21.4,30.55,NW,315,6.5,16.1,86,0.00,CLR,,0.00,WeatherDisplay:10.37,2013-03-01 16:08:00,
2013-03-01 10:10:00,25.0,21.1,30.55,NNW,337,14.9,19.0,85,0.00,CLR,,0.00,WeatherDisplay:10.37,2013-03-01 16:10:00,
2013-03-01 10:11:00,25.0,21.1,30.55,North,360,15.0,18.4,85,0.00,CLR,,0.00,WeatherDisplay:10.37,2013-03-01 16:11:00,
2013-03-01 10:13:00,25.0,21.4,30.55,NNW,337,10.6,19.6,86,0.00,CLR,,0.00,WeatherDisplay:10.37,2013-03-01 16:13:00,
2013-03-01 10:15:00,25.0,21.4,30.55,NNW,337,12.3,16.1,86,0.00,CLR,,0.00,WeatherDisplay:10.37,2013-03-01 16:15:00,
2013-03-01 10:16:00,25.0,21.4,30.55,North,360,10.7,17.3,86,0.00,CLR,,0.00,WeatherDisplay:10.37,2013-03-01 16:16:00,
2013-03-01 10:19:00,25.0,21.1,30.55,NNW,337,14.0,21.0,85,0.00,CLR,,0.00,WeatherDisplay:10.37,2013-03-01 16:19:00,
2013-03-01 10:20:00,25.0,21.1,30.55,NNW,337,16.4,20.7,85,0.00,CLR,,0.00,WeatherDisplay:10.37,2013-03-01 16:20:00,
2013-03-01 10:22:00,25.0,21.4,30.55,NNW,337,15.1,19.6,86,0.00,CLR,,0.00,WeatherDisplay:10.37,2013-03-01 16:22:00,
2013-03-01 10:24:00,25.0,21.7,30.55,NNW,337,13.0,18.4,87,0.00,CLR,,0.00,WeatherDisplay:10.37,2013-03-01 16:24:00,
2013-03-01 10:25:00,25.0,21.7,30.55,North,360,12.9,16.1,87,0.00,CLR,,0.00,WeatherDisplay:10.37,2013-03-01 16:25:00,
2013-03-01 10:27:00,25.0,21.1,30.55,NNW,337,13.3,18.0,85,0.00,CLR,,0.00,WeatherDisplay:10.37,2013-03-01 16:27:00,
2013-03-01 10:29:00,25.0,20.8,30.55,NNW,337,13.7,19.6,84,0.00,CLR,,0.00,WeatherDisplay:10.37,2013-03-01 16:29:00,
2013-03-01 10:30:00,25.0,20.8,30.55,NNW,337,14.9,19.6,84,0.00,CLR,,0.00,WeatherDisplay:10.37,2013-03-01 16:30:00,
2013-03-01 10:32:00,26.0,21.5,30.55,NNW,337,13.4,19.6,83,0.00,CLR,,0.00,WeatherDisplay:10.37,2013-03-01 16:32:00,
2013-03-01 10:34:00,26.0,21.5,30.55,NNE,22,12.4,19.6,83,0.00,CLR,,0.00,WeatherDisplay:10.37,2013-03-01 16:34:00,
2013-03-01 10:35:00,26.0,21.5,30.55,NNW,337,12.3,22.0,83,0.00,CLR,,0.00,WeatherDisplay:10.37,2013-03-01 16:35:00,
2013-03-01 10:36:00,26.0,21.0,30.55,NNE,22,16.6,23.0,81,0.00,CLR,,0.00,WeatherDisplay:10.37,2013-03-01 16:36:00,
2013-03-01 10:37:00,26.0,21.0,30.55,North,360,13.4,18.4,81,0.00,CLR,,0.00,WeatherDisplay:10.37,2013-03-01 16:37:00,
2013-03-01 10:39:00,26.0,21.3,30.55,NNE,22,14.5,20.0,82,0.00,CLR,,0.00,WeatherDisplay:10.37,2013-03-01 16:39:00,
2013-03-01 10:40:00,26.0,21.3,30.55,North,360,14.8,19.6,82,0.00,CLR,,0.00,WeatherDisplay:10.37,2013-03-01 16:40:00,
2013-03-01 10:41:00,26.0,21.5,30.55,NNW,337,12.0,18.4,83,0.00,CLR,,0.00,WeatherDisplay:10.37,2013-03-01 16:41:00,
2013-03-01 10:42:00,26.0,21.3,30.55,WNW,292,12.5,15.0,82,0.00,CLR,,0.00,WeatherDisplay:10.37,2013-03-01 16:42:00,
2013-03-01 10:45:00,26.0,21.0,30.55,NNW,337,14.3,17.3,81,0.00,CLR,,0.00,WeatherDisplay:10.37,2013-03-01 16:45:00,
2013-03-01 10:46:00,26.0,21.3,30.55,North,360,13.1,17.3,82,0.00,CLR,,0.00,WeatherDisplay:10.37,2013-03-01 16:46:00,
2013-03-01 10:47:00,26.0,21.0,30.55,NNW,337,12.0,17.3,81,0.00,CLR,,0.00,WeatherDisplay:10.37,2013-03-01 16:47:00,
2013-03-01 10:50:00,26.0,20.7,30.55,NNW,337,13.6,18.4,80,0.00,CLR,,0.00,WeatherDisplay:10.37,2013-03-01 16:50:00,
2013-03-01 10:51:00,26.0,21.3,30.55,NW,315,11.0,15.0,82,0.00,CLR,,0.00,WeatherDisplay:10.37,2013-03-01 16:51:00,
2013-03-01 10:52:00,26.0,21.0,30.55,NNE,22,10.1,14.0,81,0.00,CLR,,0.00,WeatherDisplay:10.37,2013-03-01 16:52:00,
2013-03-01 10:55:00,26.0,21.0,30.55,NNW,337,15.0,21.9,81,0.00,CLR,,0.00,WeatherDisplay:10.37,2013-03-01 16:55:00,
2013-03-01 10:56:00,26.0,20.7,30.55,North,360,13.5,17.3,80,0.00,CLR,,0.00,WeatherDisplay:10.37,2013-03-01 16:56:00,
2013-03-01 10:57:00,26.0,20.7,30.55,ENE,67,12.4,16.1,80,0.00,CLR,,0.00,WeatherDisplay:10.37,2013-03-01 16:57:00,
2013-03-01 11:00:00,27.0,21.4,30.55,North,360,11.0,13.8,79,0.00,CLR,,0.00,WeatherDisplay:10.37,2013-03-01 17:00:00,
2013-03-01 11:01:00,27.0,21.1,30.55,NNW,337,9.7,12.7,78,0.00,CLR,,0.00,WeatherDisplay:10.37,2013-03-01 17:01:00,
2013-03-01 11:02:00,27.0,21.1,30.54,North,360,10.6,11.5,78,0.00,CLR,,0.00,WeatherDisplay:10.37,2013-03-01 17:02:00,
2013-03-01 11:05:00,27.0,20.4,30.54,NW,315,15.7,19.6,76,0.00,CLR,,0.00,WeatherDisplay:10.37,2013-03-01 17:05:00,
2013-03-01 11:06:00,26.0,20.1,30.54,NNW,337,14.6,19.6,78,0.00,CLR,,0.00,WeatherDisplay:10.37,2013-03-01 17:06:00,
2013-03-01 11:07:00,26.0,20.4,30.54,NNW,337,17.9,20.7,79,0.00,CLR,,0.00,WeatherDisplay:10.37,2013-03-01 17:07:00,
2013-03-01 11:10:00,26.0,20.4,30.54,NNW,337,14.9,18.4,79,0.00,CLR,,0.00,WeatherDisplay:10.37,2013-03-01 17:10:00,
2013-03-01 11:11:00,27.0,21.1,30.54,NNW,337,10.7,16.1,78,0.00,CLR,,0.00,WeatherDisplay:10.37,2013-03-01 17:11:00,
2013-03-01 11:13:00,27.0,21.4,30.54,NNW,337,12.0,16.1,79,0.00,CLR,,0.00,WeatherDisplay:10.37,2013-03-01 17:13:00,
2013-03-01 11:15:00,27.0,21.1,30.54,WNW,292,10.5,15.0,78,0.00,CLR,,0.00,WeatherDisplay:10.37,2013-03-01 17:15:00,
2013-03-01 11:17:00,26.0,20.1,30.54,NW,315,15.6,19.6,78,0.00,CLR,,0.00,WeatherDisplay:10.37,2013-03-01 17:17:00,
2013-03-01 11:18:00,26.0,20.4,30.54,NNW,337,17.5,21.9,79,0.00,CLR,,0.00,WeatherDisplay:10.37,2013-03-01 17:18:00,
2013-03-01 11:20:00,26.0,20.4,30.54,NNW,337,15.9,19.6,79,0.00,CLR,,0.00,WeatherDisplay:10.37,2013-03-01 17:20:00,
2013-03-01 11:21:00,26.0,19.8,30.54,NW,315,15.1,25.0,77,0.00,CLR,,0.00,WeatherDisplay:10.37,2013-03-01 17:21:00,
2013-03-01 11:22:00,26.0,19.5,30.53,NW,315,18.4,25.3,76,0.00,CLR,,0.00,WeatherDisplay:10.37,2013-03-01 17:22:00,
2013-03-01 11:23:00,26.0,19.2,30.53,NNW,337,21.6,26.5,75,0.00,CLR,,0.00,WeatherDisplay:10.37,2013-03-01 17:23:00,
2013-03-01 11:25:00,26.0,19.2,30.53,North,360,18.2,25.3,75,0.00,CLR,,0.00,WeatherDisplay:10.37,2013-03-01 17:25:00,
2013-03-01 11:26:00,26.0,19.2,30.53,NNW,337,17.3,25.3,75,0.00,CLR,,0.00,WeatherDisplay:10.37,2013-03-01 17:26:00,
2013-03-01 11:27:00,26.0,18.8,30.53,NNW,337,17.3,21.9,74,0.00,CLR,,0.00,WeatherDisplay:10.37,2013-03-01 17:27:00,
2013-03-01 11:28:00,26.0,19.5,30.53,NNW,337,14.5,19.6,76,0.00,CLR,,0.00,WeatherDisplay:10.37,2013-03-01 17:28:00,
2013-03-01 11:31:00,26.0,19.2,30.53,NNW,337,19.3,21.9,75,0.00,CLR,,0.00,WeatherDisplay:10.37,2013-03-01 17:31:00,
2013-03-01 11:32:00,27.0,19.8,30.54,NNW,337,16.0,21.0,74,0.00,CLR,,0.00,WeatherDisplay:10.37,2013-03-01 17:32:00,
2013-03-01 11:33:00,27.0,20.1,30.54,NNW,337,15.8,21.9,75,0.00,CLR,,0.00,WeatherDisplay:10.37,2013-03-01 17:33:00,
2013-03-01 11:36:00,27.0,19.5,30.54,NNW,337,13.8,18.4,73,0.00,CLR,,0.00,WeatherDisplay:10.37,2013-03-01 17:36:00,
2013-03-01 11:37:00,27.0,19.5,30.54,North,360,10.9,16.1,73,0.00,CLR,,0.00,WeatherDisplay:10.37,2013-03-01 17:37:00,
2013-03-01 11:38:00,27.0,19.8,30.54,North,360,8.1,16.0,74,0.00,CLR,,0.00,WeatherDisplay:10.37,2013-03-01 17:38:00,
2013-03-01 11:41:00,27.0,19.5,30.54,NNE,22,12.0,19.6,73,0.00,CLR,,0.00,WeatherDisplay:10.37,2013-03-01 17:41:00,
2013-03-01 11:42:00,27.0,19.5,30.54,NW,315,8.3,19.6,73,0.00,CLR,,0.00,WeatherDisplay:10.37,2013-03-01 17:42:00,
2013-03-01 11:43:00,27.0,19.5,30.54,NNW,337,14.2,19.6,73,0.00,CLR,,0.00,WeatherDisplay:10.37,2013-03-01 17:43:00,
2013-03-01 11:46:00,27.0,19.5,30.54,NNW,337,14.3,19.6,73,0.00,CLR,,0.00,WeatherDisplay:10.37,2013-03-01 17:46:00,
2013-03-01 11:47:00,27.0,19.8,30.54,NNW,337,12.3,17.3,74,0.00,CLR,,0.00,WeatherDisplay:10.37,2013-03-01 17:47:00,
2013-03-01 11:48:00,27.0,19.8,30.54,NNW,337,10.2,15.0,74,0.00,CLR,,0.00,WeatherDisplay:10.37,2013-03-01 17:48:00,
2013-03-01 11:51:00,28.0,20.5,30.54,NNW,337,9.2,15.0,73,0.00,CLR,,0.00,WeatherDisplay:10.37,2013-03-01 17:51:00,
2013-03-01 11:52:00,28.0,20.5,30.55,NNW,337,9.2,13.8,73,0.00,CLR,,0.00,WeatherDisplay:10.37,2013-03-01 17:52:00,
2013-03-01 11:53:00,28.0,20.5,30.55,NNE,22,9.9,12.7,73,0.00,CLR,,0.00,WeatherDisplay:10.37,2013-03-01 17:53:00,
2013-03-01 11:56:00,28.0,20.5,30.55,North,360,13.0,17.3,73,0.00,CLR,,0.00,WeatherDisplay:10.37,2013-03-01 17:56:00,
2013-03-01 11:57:00,28.0,20.1,30.55,NNW,337,11.9,18.0,72,0.00,CLR,,0.00,WeatherDisplay:10.37,2013-03-01 17:57:00,
2013-03-01 11:58:00,28.0,20.1,30.55,NNW,337,13.8,19.6,72,0.00,CLR,,0.00,WeatherDisplay:10.37,2013-03-01 17:58:00,
2013-03-01 11:59:00,28.0,20.1,30.55,NNW,337,12.5,19.6,72,0.00,CLR,,0.00,WeatherDisplay:10.37,2013-03-01 17:59:00,
2013-03-01 12:01:00,27.0,18.8,30.54,NNW,337,16.0,21.9,71,0.00,CLR,,0.00,WeatherDisplay:10.37,2013-03-01 18:01:00,
2013-03-01 12:03:00,27.0,18.8,30.54,NNE,22,16.7,19.6,71,0.00,CLR,,0.00,WeatherDisplay:10.37,2013-03-01 18:03:00,
2013-03-01 12:04:00,27.0,18.8,30.54,NNW,337,18.5,23.0,71,0.00,CLR,,0.00,WeatherDisplay:10.37,2013-03-01 18:04:00,
2013-03-01 12:06:00,27.0,19.2,30.54,NNW,337,16.6,20.7,72,0.00,CLR,,0.00,WeatherDisplay:10.37,2013-03-01 18:06:00,
2013-03-01 12:08:00,27.0,19.5,30.54,North,360,17.5,21.9,73,0.00,CLR,,0.00,WeatherDisplay:10.37,2013-03-01 18:08:00,
2013-03-01 12:09:00,27.0,19.5,30.54,North,360,14.5,19.6,73,0.00,CLR,,0.00,WeatherDisplay:10.37,2013-03-01 18:09:00,
2013-03-01 12:12:00,27.0,19.5,30.55,North,360,17.9,20.7,73,0.00,CLR,,0.00,WeatherDisplay:10.37,2013-03-01 18:12:00,
2013-03-01 12:13:00,27.0,19.2,30.55,NNE,22,15.9,20.7,72,0.00,CLR,,0.00,WeatherDisplay:10.37,2013-03-01 18:13:00,
2013-03-01 12:14:00,27.0,19.2,30.55,NW,315,8.3,19.6,72,0.00,CLR,,0.00,WeatherDisplay:10.37,2013-03-01 18:14:00,
2013-03-01 12:17:00,27.0,19.5,30.55,NNW,337,12.4,18.4,73,0.00,CLR,,0.00,WeatherDisplay:10.37,2013-03-01 18:17:00,
2013-03-01 12:18:00,27.0,19.5,30.55,NNW,337,18.4,24.0,73,0.00,CLR,,0.00,WeatherDisplay:10.37,2013-03-01 18:18:00,
2013-03-01 12:19:00,27.0,19.5,30.55,NNW,337,17.8,24.2,73,0.00,CLR,,0.00,WeatherDisplay:10.37,2013-03-01 18:19:00,
2013-03-01 12:20:00,27.0,19.8,30.55,NNW,337,17.4,23.0,74,0.00,CLR,,0.00,WeatherDisplay:10.37,2013-03-01 18:20:00,
2013-03-01 12:22:00,27.0,19.8,30.54,NNW,337,18.9,24.2,74,0.00,CLR,,0.00,WeatherDisplay:10.37,2013-03-01 18:22:00,
2013-03-01 12:23:00,26.0,19.5,30.54,NNW,337,15.6,23.0,76,0.00,CLR,,0.00,WeatherDisplay:10.37,2013-03-01 18:23:00,
2013-03-01 12:24:00,26.0,19.8,30.54,NNE,22,14.4,19.6,77,0.00,CLR,,0.00,WeatherDisplay:10.37,2013-03-01 18:24:00,
2013-03-01 12:25:00,27.0,20.4,30.54,NNE,22,13.0,19.6,76,0.00,CLR,,0.00,WeatherDisplay:10.37,2013-03-01 18:25:00,
2013-03-01 12:27:00,27.0,20.1,30.54,North,360,15.7,19.6,75,0.00,CLR,,0.00,WeatherDisplay:10.37,2013-03-01 18:27:00,
2013-03-01 12:28:00,27.0,20.4,30.54,NNW,337,13.8,19.6,76,0.00,CLR,,0.00,WeatherDisplay:10.37,2013-03-01 18:28:00,
2013-03-01 12:29:00,27.0,20.4,30.54,North,360,13.4,18.4,76,0.00,CLR,,0.00,WeatherDisplay:10.37,2013-03-01 18:29:00,
2013-03-01 12:30:00,27.0,20.7,30.54,NNE,22,12.1,18.4,77,0.00,CLR,,0.00,WeatherDisplay:10.37,2013-03-01 18:30:00,
2013-03-01 12:32:00,27.0,20.4,30.55,NNE,22,6.8,17.0,76,0.00,CLR,,0.00,WeatherDisplay:10.37,2013-03-01 18:32:00,
2013-03-01 12:33:00,27.0,20.1,30.55,NNW,337,14.4,19.6,75,0.00,CLR,,0.00,WeatherDisplay:10.37,2013-03-01 18:33:00,
2013-03-01 12:34:00,27.0,20.1,30.55,NNW,337,16.7,19.6,75,0.00,CLR,,0.00,WeatherDisplay:10.37,2013-03-01 18:34:00,
2013-03-01 12:36:00,27.0,20.1,30.55,North,360,13.6,19.6,75,0.00,CLR,,0.00,WeatherDisplay:10.37,2013-03-01 18:36:00,
2013-03-01 12:37:00,27.0,20.1,30.55,North,360,12.2,19.6,75,0.00,CLR,,0.00,WeatherDisplay:10.37,2013-03-01 18:37:00,
2013-03-01 12:38:00,27.0,20.4,30.55,NNW,337,11.3,14.0,76,0.00,CLR,,0.00,WeatherDisplay:10.37,2013-03-01 18:38:00,
2013-03-01 12:39:00,27.0,19.8,30.55,NNW,337,15.5,21.9,74,0.00,CLR,,0.00,WeatherDisplay:10.37,2013-03-01 18:39:00,
2013-03-01 12:41:00,26.0,19.8,30.55,NNW,337,12.6,16.1,77,0.00,CLR,,0.00,WeatherDisplay:10.37,2013-03-01 18:41:00,
2013-03-01 12:43:00,26.0,19.5,30.55,NNW,337,14.5,19.6,76,0.00,CLR,,0.00,WeatherDisplay:10.37,2013-03-01 18:43:00,
2013-03-01 12:44:00,26.0,19.8,30.55,North,360,14.1,19.6,77,0.00,CLR,,0.00,WeatherDisplay:10.37,2013-03-01 18:44:00,
2013-03-01 12:46:00,27.0,20.1,30.55,NNW,337,12.4,16.1,75,0.00,CLR,,0.00,WeatherDisplay:10.37,2013-03-01 18:46:00,
2013-03-01 12:48:00,27.0,19.5,30.55,NNW,337,13.4,18.4,73,0.00,CLR,,0.00,WeatherDisplay:10.37,2013-03-01 18:48:00,
2013-03-01 12:49:00,27.0,19.8,30.55,NNW,337,13.1,17.3,74,0.00,CLR,,0.00,WeatherDisplay:10.37,2013-03-01 18:49:00,
2013-03-01 12:52:00,27.0,19.5,30.54,NNE,22,11.6,17.0,73,0.00,CLR,,0.00,WeatherDisplay:10.37,2013-03-01 18:52:00,
2013-03-01 12:53:00,27.0,19.5,30.54,North,360,11.9,19.6,73,0.00,CLR,,0.00,WeatherDisplay:10.37,2013-03-01 18:53:00,
2013-03-01 12:54:00,27.0,19.5,30.54,North,360,13.7,19.6,73,0.00,CLR,,0.00,WeatherDisplay:10.37,2013-03-01 18:54:00,
2013-03-01 12:57:00,27.0,19.2,30.54,North,360,13.4,19.6,72,0.00,CLR,,0.00,WeatherDisplay:10.37,2013-03-01 18:57:00,
2013-03-01 12:58:00,27.0,19.2,30.54,NNW,337,13.4,21.0,72,0.00,CLR,,0.00,WeatherDisplay:10.37,2013-03-01 18:58:00,
2013-03-01 12:59:00,27.0,18.5,30.54,NNW,337,17.2,23.0,70,0.00,CLR,,0.00,WeatherDisplay:10.37,2013-03-01 18:59:00,
2013-03-01 13:03:00,27.0,18.8,30.54,North,360,13.7,19.6,71,0.00,CLR,,0.00,WeatherDisplay:10.37,2013-03-01 19:03:00,
2013-03-01 13:04:00,27.0,18.8,30.54,NNE,22,15.1,19.6,71,0.00,CLR,,0.00,WeatherDisplay:10.37,2013-03-01 19:04:00,
2013-03-01 13:08:00,27.0,18.8,30.54,NNE,22,6.9,18.4,71,0.00,CLR,,0.00,WeatherDisplay:10.37,2013-03-01 19:08:00,
2013-03-01 13:09:00,27.0,18.5,30.54,NNE,22,13.6,19.6,70,0.00,CLR,,0.00,WeatherDisplay:10.37,2013-03-01 19:09:00,
2013-03-01 13:13:00,27.0,18.5,30.54,NNW,337,14.6,19.6,70,0.00,CLR,,0.00,WeatherDisplay:10.37,2013-03-01 19:13:00,
2013-03-01 13:14:00,27.0,18.5,30.54,North,360,15.9,20.7,70,0.00,CLR,,0.00,WeatherDisplay:10.37,2013-03-01 19:14:00,
2013-03-01 13:18:00,27.0,18.8,30.54,North,360,15.3,19.6,71,0.00,CLR,,0.00,WeatherDisplay:10.37,2013-03-01 19:18:00,
2013-03-01 13:19:00,27.0,18.8,30.54,NNE,22,13.4,18.4,71,0.00,CLR,,0.00,WeatherDisplay:10.37,2013-03-01 19:19:00,
2013-03-01 13:23:00,27.0,18.5,30.54,North,360,15.3,19.6,70,0.00,CLR,,0.00,WeatherDisplay:10.37,2013-03-01 19:23:00,
2013-03-01 13:24:00,27.0,18.5,30.54,North,360,14.8,20.7,70,0.00,CLR,,0.00,WeatherDisplay:10.37,2013-03-01 19:24:00,
2013-03-01 13:28:00,26.0,18.2,30.54,NNE,22,16.4,21.9,72,0.00,CLR,,0.00,WeatherDisplay:10.37,2013-03-01 19:28:00,
2013-03-01 13:29:00,26.0,17.9,30.54,NNW,337,15.7,20.7,71,0.00,CLR,,0.00,WeatherDisplay:10.37,2013-03-01 19:29:00,
2013-03-01 13:33:00,27.0,19.2,30.54,North,360,14.0,19.6,72,0.00,CLR,,0.00,WeatherDisplay:10.37,2013-03-01 19:33:00,
2013-03-01 13:34:00,27.0,19.2,30.54,NNE,22,13.2,18.4,72,0.00,CLR,,0.00,WeatherDisplay:10.37,2013-03-01 19:34:00,
2013-03-01 13:38:00,27.0,18.5,30.54,North,360,14.1,21.9,70,0.00,CLR,,0.00,WeatherDisplay:10.37,2013-03-01 19:38:00,
2013-03-01 13:39:00,27.0,18.5,30.54,North,360,15.5,20.7,70,0.00,CLR,,0.00,WeatherDisplay:10.37,2013-03-01 19:39:00,
2013-03-01 13:40:00,26.0,17.9,30.54,NNW,337,16.7,20.7,71,0.00,CLR,,0.00,WeatherDisplay:10.37,2013-03-01 19:40:00,
2013-03-01 13:44:00,27.0,18.8,30.54,North,360,11.9,17.3,71,0.00,CLR,,0.00,WeatherDisplay:10.37,2013-03-01 19:44:00,
2013-03-01 13:45:00,27.0,18.5,30.54,North,360,13.3,18.0,70,0.00,CLR,,0.00,WeatherDisplay:10.37,2013-03-01 19:45:00,
2013-03-01 13:49:00,27.0,17.8,30.54,NNW,337,17.0,21.9,68,0.00,CLR,,0.00,WeatherDisplay:10.37,2013-03-01 19:49:00,
2013-03-01 13:50:00,27.0,18.2,30.54,NNW,337,17.3,20.7,69,0.00,CLR,,0.00,WeatherDisplay:10.37,2013-03-01 19:50:00,
2013-03-01 13:54:00,27.0,17.8,30.54,NNE,22,17.3,25.3,68,0.00,CLR,,0.00,WeatherDisplay:10.37,2013-03-01 19:54:00,
2013-03-01 13:55:00,27.0,18.2,30.54,NNE,22,11.8,19.6,69,0.00,CLR,,0.00,WeatherDisplay:10.37,2013-03-01 19:55:00,
2013-03-01 13:59:00,27.0,18.2,30.54,NNW,337,14.7,19.6,69,0.00,CLR,,0.00,WeatherDisplay:10.37,2013-03-01 19:59:00,
2013-03-01 14:00:00,27.0,18.5,30.54,North,360,6.4,16.1,70,0.00,CLR,,0.00,WeatherDisplay:10.37,2013-03-01 20:00:00,
2013-03-01 14:04:00,26.0,17.2,30.54,NNW,337,19.2,25.3,69,0.00,CLR,,0.00,WeatherDisplay:10.37,2013-03-01 20:04:00,
2013-03-01 14:05:00,26.0,17.6,30.54,NNW,337,15.2,19.6,70,0.00,CLR,,0.00,WeatherDisplay:10.37,2013-03-01 20:05:00,
2013-03-01 14:09:00,27.0,17.5,30.54,NNW,337,15.0,19.6,67,0.00,CLR,,0.00,WeatherDisplay:10.37,2013-03-01 20:09:00,
2013-03-01 14:10:00,27.0,17.5,30.54,NNW,337,14.2,19.6,67,0.00,CLR,,0.00,WeatherDisplay:10.37,2013-03-01 20:10:00,
2013-03-01 14:14:00,27.0,17.5,30.54,North,360,13.7,18.4,67,0.00,CLR,,0.00,WeatherDisplay:10.37,2013-03-01 20:14:00,
2013-03-01 14:15:00,27.0,17.1,30.54,NNE,22,14.3,21.0,66,0.00,CLR,,0.00,WeatherDisplay:10.37,2013-03-01 20:15:00,
2013-03-01 14:19:00,27.0,17.5,30.54,NNW,337,15.8,19.6,67,0.00,CLR,,0.00,WeatherDisplay:10.37,2013-03-01 20:19:00,
2013-03-01 14:20:00,27.0,17.8,30.54,North,360,14.3,17.3,68,0.00,CLR,,0.00,WeatherDisplay:10.37,2013-03-01 20:20:00,
2013-03-01 14:24:00,27.0,18.2,30.54,NNW,337,10.6,19.6,69,0.00,CLR,,0.00,WeatherDisplay:10.37,2013-03-01 20:24:00,
2013-03-01 14:25:00,27.0,18.5,30.54,North,360,15.2,18.4,70,0.00,CLR,,0.00,WeatherDisplay:10.37,2013-03-01 20:25:00,
2013-03-01 14:29:00,26.0,17.6,30.54,North,360,15.8,18.4,70,0.00,CLR,,0.00,WeatherDisplay:10.37,2013-03-01 20:29:00,
2013-03-01 14:30:00,26.0,17.9,30.54,NNE,22,13.2,19.6,71,0.00,CLR,,0.00,WeatherDisplay:10.37,2013-03-01 20:30:00,
2013-03-01 14:31:00,27.0,18.8,30.54,NNW,337,10.7,19.6,71,0.00,CLR,,0.00,WeatherDisplay:10.37,2013-03-01 20:31:00,
2013-03-01 14:34:00,27.0,18.5,30.54,NNW,337,13.9,17.3,70,0.00,CLR,,0.00,WeatherDisplay:10.37,2013-03-01 20:34:00,
2013-03-01 14:35:00,27.0,18.8,30.54,NNW,337,13.2,18.4,71,0.00,CLR,,0.00,WeatherDisplay:10.37,2013-03-01 20:35:00,
2013-03-01 14:36:00,27.0,18.5,30.54,North,360,12.3,18.4,70,0.00,CLR,,0.00,WeatherDisplay:10.37,2013-03-01 20:36:00,
2013-03-01 14:39:00,27.0,17.8,30.54,NW,315,17.9,22.0,68,0.00,CLR,,0.00,WeatherDisplay:10.37,2013-03-01 20:39:00,
2013-03-01 14:40:00,26.0,17.9,30.54,NNW,337,17.4,25.3,71,0.00,CLR,,0.00,WeatherDisplay:10.37,2013-03-01 20:40:00,
2013-03-01 14:41:00,26.0,17.6,30.54,NNW,337,16.1,25.3,70,0.00,CLR,,0.00,WeatherDisplay:10.37,2013-03-01 20:41:00,
2013-03-01 14:44:00,26.0,17.9,30.54,NNW,337,13.8,19.6,71,0.00,CLR,,0.00,WeatherDisplay:10.37,2013-03-01 20:44:00,
2013-03-01 14:46:00,26.0,17.9,30.54,North,360,14.5,17.3,71,0.00,CLR,,0.00,WeatherDisplay:10.37,2013-03-01 20:46:00,
2013-03-01 14:50:00,27.0,18.8,30.54,NNW,337,8.6,15.0,71,0.00,CLR,,0.00,WeatherDisplay:10.37,2013-03-01 20:50:00,
2013-03-01 14:51:00,27.0,18.5,30.54,NNE,22,8.4,12.0,70,0.00,CLR,,0.00,WeatherDisplay:10.37,2013-03-01 20:51:00,
2013-03-01 14:55:00,27.0,18.2,30.54,North,360,12.4,15.0,69,0.00,CLR,,0.00,WeatherDisplay:10.37,2013-03-01 20:55:00,
2013-03-01 14:56:00,27.0,18.5,30.54,NNE,22,11.2,15.0,70,0.00,CLR,,0.00,WeatherDisplay:10.37,2013-03-01 20:56:00,
2013-03-01 15:00:00,27.0,18.2,30.54,NNW,337,11.1,15.0,69,0.00,CLR,,0.00,WeatherDisplay:10.37,2013-03-01 21:00:00,
2013-03-01 15:01:00,27.0,18.2,30.54,NNW,337,10.8,14.0,69,0.00,CLR,,0.00,WeatherDisplay:10.37,2013-03-01 21:01:00,
2013-03-01 15:05:00,27.0,17.8,30.54,NNW,337,13.1,19.6,68,0.00,CLR,,0.00,WeatherDisplay:10.37,2013-03-01 21:05:00,
2013-03-01 15:06:00,27.0,18.5,30.54,NNW,337,14.0,16.1,70,0.00,CLR,,0.00,WeatherDisplay:10.37,2013-03-01 21:06:00,
2013-03-01 15:07:00,27.0,18.5,30.54,NNW,337,14.5,16.1,70,0.00,CLR,,0.00,WeatherDisplay:10.37,2013-03-01 21:07:00,
2013-03-01 15:10:00,27.0,18.2,30.54,North,360,14.2,18.4,69,0.00,CLR,,0.00,WeatherDisplay:10.37,2013-03-01 21:10:00,
2013-03-01 15:11:00,27.0,18.2,30.54,NNW,337,13.8,17.3,69,0.00,CLR,,0.00,WeatherDisplay:10.37,2013-03-01 21:11:00,
2013-03-01 15:12:00,27.0,18.2,30.54,North,360,12.1,17.3,69,0.00,CLR,,0.00,WeatherDisplay:10.37,2013-03-01 21:12:00,
2013-03-01 15:16:00,28.0,18.8,30.54,North,360,13.3,17.3,68,0.00,CLR,,0.00,WeatherDisplay:10.37,2013-03-01 21:16:00,
2013-03-01 15:17:00,28.0,18.8,30.54,NNW,337,13.2,18.4,68,0.00,CLR,,0.00,WeatherDisplay:10.37,2013-03-01 21:17:00,
2013-03-01 15:21:00,27.0,18.2,30.54,NNW,337,13.8,16.1,69,0.00,CLR,,0.00,WeatherDisplay:10.37,2013-03-01 21:21:00,
2013-03-01 15:22:00,27.0,18.2,30.54,North,360,14.4,19.6,69,0.00,CLR,,0.00,WeatherDisplay:10.37,2013-03-01 21:22:00,
2013-03-01 15:26:00,27.0,18.5,30.54,North,360,12.0,18.4,70,0.00,CLR,,0.00,WeatherDisplay:10.37,2013-03-01 21:26:00,
2013-03-01 15:27:00,27.0,18.2,30.54,NNW,337,14.2,18.4,69,0.00,CLR,,0.00,WeatherDisplay:10.37,2013-03-01 21:27:00,
2013-03-01 15:31:00,27.0,18.5,30.54,NNW,337,14.8,19.6,70,0.00,CLR,,0.00,WeatherDisplay:10.37,2013-03-01 21:31:00,
2013-03-01 15:32:00,27.0,18.5,30.55,NNW,337,14.3,19.6,70,0.00,CLR,,0.00,WeatherDisplay:10.37,2013-03-01 21:32:00,
2013-03-01 15:36:00,27.0,19.2,30.55,NNW,337,11.8,16.0,72,0.00,CLR,,0.00,WeatherDisplay:10.37,2013-03-01 21:36:00,
2013-03-01 15:37:00,27.0,19.2,30.55,North,360,12.1,15.0,72,0.00,CLR,,0.00,WeatherDisplay:10.37,2013-03-01 21:37:00,
2013-03-01 15:41:00,27.0,19.2,30.55,NNW,337,11.6,15.0,72,0.00,CLR,,0.00,WeatherDisplay:10.37,2013-03-01 21:41:00,
2013-03-01 15:42:00,27.0,18.8,30.55,NNW,337,11.3,15.0,71,0.00,CLR,,0.00,WeatherDisplay:10.37,2013-03-01 21:42:00,
2013-03-01 15:46:00,27.0,18.5,30.55,NNW,337,12.5,13.8,70,0.00,CLR,,0.00,WeatherDisplay:10.37,2013-03-01 21:46:00,
2013-03-01 15:47:00,27.0,18.8,30.55,North,360,11.2,16.1,71,0.00,CLR,,0.00,WeatherDisplay:10.37,2013-03-01 21:47:00,
2013-03-01 15:51:00,27.0,19.2,30.55,NNW,337,11.4,17.0,72,0.00,CLR,,0.00,WeatherDisplay:10.37,2013-03-01 21:51:00,
2013-03-01 15:52:00,27.0,19.2,30.55,NNW,337,13.5,19.6,72,0.00,CLR,,0.00,WeatherDisplay:10.37,2013-03-01 21:52:00,
2013-03-01 15:53:00,27.0,19.2,30.55,North,360,13.9,17.3,72,0.00,CLR,,0.00,WeatherDisplay:10.37,2013-03-01 21:53:00,
2013-03-01 15:56:00,27.0,19.5,30.55,North,360,13.4,18.4,73,0.00,CLR,,0.00,WeatherDisplay:10.37,2013-03-01 21:56:00,
2013-03-01 15:57:00,27.0,19.5,30.55,NNW,337,10.5,18.4,73,0.00,CLR,,0.00,WeatherDisplay:10.37,2013-03-01 21:57:00,
2013-03-01 15:58:00,27.0,19.8,30.55,North,360,10.4,11.5,74,0.00,CLR,,0.00,WeatherDisplay:10.37,2013-03-01 21:58:00,
2013-03-01 16:01:00,27.0,19.5,30.55,NNW,337,11.2,17.3,73,0.00,CLR,,0.00,WeatherDisplay:10.37,2013-03-01 22:01:00,
2013-03-01 16:02:00,27.0,19.5,30.55,NNW,337,10.2,13.8,73,0.00,CLR,,0.00,WeatherDisplay:10.37,2013-03-01 22:02:00,
2013-03-01 16:03:00,27.0,19.8,30.55,NNE,22,10.6,13.8,74,0.00,CLR,,0.00,WeatherDisplay:10.37,2013-03-01 22:03:00,
2013-03-01 16:07:00,26.0,18.8,30.55,NNW,337,14.0,19.6,74,0.00,CLR,,0.00,WeatherDisplay:10.37,2013-03-01 22:07:00,
2013-03-01 16:08:00,26.0,18.8,30.55,NNW,337,13.0,18.4,74,0.00,CLR,,0.00,WeatherDisplay:10.37,2013-03-01 22:08:00,
2013-03-01 16:09:00,26.0,18.5,30.55,NNW,337,14.0,18.4,73,0.00,CLR,,0.00,WeatherDisplay:10.37,2013-03-01 22:09:00,
2013-03-01 16:12:00,26.0,18.5,30.55,NNW,337,17.3,19.6,73,0.00,CLR,,0.00,WeatherDisplay:10.37,2013-03-01 22:12:00,
2013-03-01 16:13:00,26.0,18.8,30.55,NNW,337,14.7,19.6,74,0.00,CLR,,0.00,WeatherDisplay:10.37,2013-03-01 22:13:00,
2013-03-01 16:14:00,26.0,18.8,30.55,North,360,14.6,18.4,74,0.00,CLR,,0.00,WeatherDisplay:10.37,2013-03-01 22:14:00,
2013-03-01 16:17:00,26.0,18.8,30.55,NNW,337,14.8,20.0,74,0.00,CLR,,0.00,WeatherDisplay:10.37,2013-03-01 22:17:00,
2013-03-01 16:18:00,26.0,18.8,30.55,NNW,337,15.7,19.6,74,0.00,CLR,,0.00,WeatherDisplay:10.37,2013-03-01 22:18:00,
2013-03-01 16:19:00,26.0,18.5,30.55,North,360,15.3,19.6,73,0.00,CLR,,0.00,WeatherDisplay:10.37,2013-03-01 22:19:00,
2013-03-01 16:22:00,26.0,18.8,30.56,NNW,337,14.4,18.4,74,0.00,CLR,,0.00,WeatherDisplay:10.37,2013-03-01 22:22:00,
2013-03-01 16:23:00,26.0,18.8,30.56,NNW,337,15.7,19.6,74,0.00,CLR,,0.00,WeatherDisplay:10.37,2013-03-01 22:23:00,
2013-03-01 16:24:00,26.0,18.8,30.56,NNW,337,13.1,17.3,74,0.00,CLR,,0.00,WeatherDisplay:10.37,2013-03-01 22:24:00,
2013-03-01 16:27:00,26.0,18.8,30.56,North,360,13.1,19.6,74,0.00,CLR,,0.00,WeatherDisplay:10.37,2013-03-01 22:27:00,
2013-03-01 16:28:00,26.0,18.8,30.56,NNW,337,13.0,19.6,74,0.00,CLR,,0.00,WeatherDisplay:10.37,2013-03-01 22:28:00,
2013-03-01 16:29:00,26.0,18.8,30.56,NNW,337,13.4,17.3,74,0.00,CLR,,0.00,WeatherDisplay:10.37,2013-03-01 22:29:00,
2013-03-01 16:32:00,26.0,18.5,30.56,NNW,337,15.2,16.1,73,0.00,CLR,,0.00,WeatherDisplay:10.37,2013-03-01 22:32:00,
2013-03-01 16:33:00,26.0,18.5,30.56,North,360,16.7,18.0,73,0.00,CLR,,0.00,WeatherDisplay:10.37,2013-03-01 22:33:00,
2013-03-01 16:34:00,26.0,18.5,30.56,NNW,337,13.6,17.3,73,0.00,CLR,,0.00,WeatherDisplay:10.37,2013-03-01 22:34:00,
2013-03-01 16:37:00,26.0,18.8,30.56,NW,315,13.5,18.4,74,0.00,CLR,,0.00,WeatherDisplay:10.37,2013-03-01 22:37:00,
2013-03-01 16:38:00,26.0,18.8,30.56,NW,315,9.5,19.6,74,0.00,CLR,,0.00,WeatherDisplay:10.37,2013-03-01 22:38:00,
2013-03-01 16:39:00,26.0,18.8,30.56,NNW,337,12.2,18.4,74,0.00,CLR,,0.00,WeatherDisplay:10.37,2013-03-01 22:39:00,
2013-03-01 16:42:00,26.0,18.5,30.57,NNW,337,14.1,18.0,73,0.00,CLR,,0.00,WeatherDisplay:10.37,2013-03-01 22:42:00,
2013-03-01 16:43:00,26.0,18.5,30.57,NNW,337,14.8,18.4,73,0.00,CLR,,0.00,WeatherDisplay:10.37,2013-03-01 22:43:00,
2013-03-01 16:44:00,26.0,18.5,30.57,NNW,337,14.8,18.4,73,0.00,CLR,,0.00,WeatherDisplay:10.37,2013-03-01 22:44:00,
2013-03-01 16:48:00,26.0,18.5,30.57,NNW,337,13.6,19.6,73,0.00,CLR,,0.00,WeatherDisplay:10.37,2013-03-01 22:48:00,
2013-03-01 16:50:00,26.0,18.5,30.57,NNW,337,6.2,15.0,73,0.00,CLR,,0.00,WeatherDisplay:10.37,2013-03-01 22:50:00,
2013-03-01 16:53:00,26.0,18.5,30.57,NNW,337,13.7,18.4,73,0.00,CLR,,0.00,WeatherDisplay:10.37,2013-03-01 22:53:00,
2013-03-01 16:55:00,26.0,18.5,30.57,NNW,337,13.6,19.6,73,0.00,CLR,,0.00,WeatherDisplay:10.37,2013-03-01 22:55:00,
2013-03-01 16:58:00,25.0,17.6,30.57,NNE,22,12.0,17.3,73,0.00,CLR,,0.00,WeatherDisplay:10.37,2013-03-01 22:58:00,
2013-03-01 17:00:00,25.0,17.6,30.57,NNW,337,11.1,13.8,73,0.00,CLR,,0.00,WeatherDisplay:10.37,2013-03-01 23:00:00,
2013-03-01 17:03:00,25.0,17.2,30.57,NNW,337,13.2,18.4,72,0.00,CLR,,0.00,WeatherDisplay:10.37,2013-03-01 23:03:00,
2013-03-01 17:04:00,25.0,17.6,30.57,North,360,9.9,18.4,73,0.00,CLR,,0.00,WeatherDisplay:10.37,2013-03-01 23:04:00,
2013-03-01 17:05:00,25.0,17.9,30.57,North,360,10.6,13.8,74,0.00,CLR,,0.00,WeatherDisplay:10.37,2013-03-01 23:05:00,
2013-03-01 17:08:00,25.0,17.9,30.57,NW,315,11.4,18.4,74,0.00,CLR,,0.00,WeatherDisplay:10.37,2013-03-01 23:08:00,
2013-03-01 17:09:00,25.0,17.9,30.57,NNW,337,7.3,16.1,74,0.00,CLR,,0.00,WeatherDisplay:10.37,2013-03-01 23:09:00,
2013-03-01 17:10:00,25.0,18.2,30.57,North,360,14.7,18.4,75,0.00,CLR,,0.00,WeatherDisplay:10.37,2013-03-01 23:10:00,
2013-03-01 17:13:00,25.0,18.2,30.58,NNW,337,14.9,20.7,75,0.00,CLR,,0.00,WeatherDisplay:10.37,2013-03-01 23:13:00,
2013-03-01 17:14:00,25.0,18.2,30.58,NNW,337,14.8,17.0,75,0.00,CLR,,0.00,WeatherDisplay:10.37,2013-03-01 23:14:00,
2013-03-01 17:15:00,25.0,18.2,30.58,NNW,337,16.1,21.9,75,0.00,CLR,,0.00,WeatherDisplay:10.37,2013-03-01 23:15:00,
2013-03-01 17:18:00,25.0,17.9,30.58,NNW,337,17.7,24.2,74,0.00,CLR,,0.00,WeatherDisplay:10.37,2013-03-01 23:18:00,
2013-03-01 17:19:00,25.0,17.9,30.58,NNW,337,17.1,24.2,74,0.00,CLR,,0.00,WeatherDisplay:10.37,2013-03-01 23:19:00,
2013-03-01 17:21:00,25.0,17.9,30.58,NNW,337,13.5,19.0,74,0.00,CLR,,0.00,WeatherDisplay:10.37,2013-03-01 23:21:00,
2013-03-01 17:23:00,25.0,18.2,30.59,North,360,12.7,18.4,75,0.00,CLR,,0.00,WeatherDisplay:10.37,2013-03-01 23:23:00,
2013-03-01 17:24:00,25.0,18.2,30.59,NNW,337,12.7,18.4,75,0.00,CLR,,0.00,WeatherDisplay:10.37,2013-03-01 23:24:00,
2013-03-01 17:26:00,25.0,17.9,30.59,NNW,337,16.0,19.6,74,0.00,CLR,,0.00,WeatherDisplay:10.37,2013-03-01 23:26:00,
2013-03-01 17:28:00,25.0,18.2,30.59,NNW,337,14.4,17.3,75,0.00,CLR,,0.00,WeatherDisplay:10.37,2013-03-01 23:28:00,
2013-03-01 17:29:00,25.0,18.2,30.59,NNW,337,14.4,17.3,75,0.00,CLR,,0.00,WeatherDisplay:10.37,2013-03-01 23:29:00,
2013-03-01 17:31:00,25.0,18.5,30.59,NNW,337,10.5,15.0,76,0.00,CLR,,0.00,WeatherDisplay:10.37,2013-03-01 23:31:00,
2013-03-01 17:33:00,24.0,17.2,30.59,NNW,337,12.2,18.4,75,0.00,CLR,,0.00,WeatherDisplay:10.37,2013-03-01 23:33:00,
2013-03-01 17:34:00,24.0,17.2,30.59,NNW,337,12.5,18.4,75,0.00,CLR,,0.00,WeatherDisplay:10.37,2013-03-01 23:34:00,
2013-03-01 17:36:00,24.0,16.9,30.59,NNW,337,13.3,18.4,74,0.00,CLR,,0.00,WeatherDisplay:10.37,2013-03-01 23:36:00,
2013-03-01 17:39:00,24.0,17.5,30.59,NNW,337,10.7,16.1,76,0.00,CLR,,0.00,WeatherDisplay:10.37,2013-03-01 23:39:00,
2013-03-01 17:41:00,24.0,17.2,30.59,NNW,337,13.6,17.3,75,0.00,CLR,,0.00,WeatherDisplay:10.37,2013-03-01 23:41:00,
2013-03-01 17:44:00,24.0,17.2,30.59,North,360,12.0,16.1,75,0.00,CLR,,0.00,WeatherDisplay:10.37,2013-03-01 23:44:00,
2013-03-01 17:46:00,24.0,17.2,30.59,NNE,22,12.8,16.1,75,0.00,CLR,,0.00,WeatherDisplay:10.37,2013-03-01 23:46:00,
2013-03-01 17:49:00,24.0,17.2,30.59,NNE,22,12.8,19.6,75,0.00,CLR,,0.00,WeatherDisplay:10.37,2013-03-01 23:49:00,
2013-03-01 17:51:00,24.0,17.5,30.59,NNE,22,11.4,19.6,76,0.00,CLR,,0.00,WeatherDisplay:10.37,2013-03-01 23:51:00,
2013-03-01 17:54:00,24.0,17.2,30.60,NNE,22,12.0,16.1,75,0.00,CLR,,0.00,WeatherDisplay:10.37,2013-03-01 23:54:00,
2013-03-01 17:55:00,24.0,16.9,30.60,NNE,22,13.7,16.1,74,0.00,CLR,,0.00,WeatherDisplay:10.37,2013-03-01 23:55:00,
2013-03-01 17:56:00,24.0,17.2,30.60,NNE,22,11.4,16.0,75,0.00,CLR,,0.00,WeatherDisplay:10.37,2013-03-01 23:56:00,
2013-03-01 17:59:00,24.0,17.2,30.60,NNE,22,11.0,15.0,75,0.00,CLR,,0.00,WeatherDisplay:10.37,2013-03-01 23:59:00,
2013-03-01 18:00:00,24.0,17.2,30.60,NNE,22,9.6,15.0,75,0.00,CLR,,0.00,WeatherDisplay:10.37,2013-03-02 00:00:00,
2013-03-01 18:01:00,24.0,17.5,30.60,North,360,9.1,13.0,76,0.00,CLR,,0.00,WeatherDisplay:10.37,2013-03-02 00:01:00,
2013-03-01 18:04:00,24.0,17.2,30.61,NNE,22,7.5,11.5,75,0.00,CLR,,0.00,WeatherDisplay:10.37,2013-03-02 00:04:00,
2013-03-01 18:05:00,24.0,17.2,30.61,NNE,22,8.6,12.0,75,0.00,CLR,,0.00,WeatherDisplay:10.37,2013-03-02 00:05:00,
2013-03-01 18:06:00,24.0,17.5,30.61,NNE,22,9.1,12.7,76,0.00,CLR,,0.00,WeatherDisplay:10.37,2013-03-02 00:06:00,
2013-03-01 18:09:00,24.0,17.5,30.61,North,360,11.6,13.8,76,0.00,CLR,,0.00,WeatherDisplay:10.37,2013-03-02 00:09:00,
2013-03-01 18:10:00,24.0,17.5,30.61,NNW,337,11.5,13.8,76,0.00,CLR,,0.00,WeatherDisplay:10.37,2013-03-02 00:10:00,
2013-03-01 18:12:00,24.0,17.5,30.61,North,360,13.8,19.6,76,0.00,CLR,,0.00,WeatherDisplay:10.37,2013-03-02 00:12:00,
2013-03-01 18:14:00,24.0,17.2,30.61,NNW,337,11.3,15.0,75,0.00,CLR,,0.00,WeatherDisplay:10.37,2013-03-02 00:14:00,
2013-03-01 18:15:00,24.0,17.2,30.61,North,360,11.7,15.0,75,0.00,CLR,,0.00,WeatherDisplay:10.37,2013-03-02 00:15:00,
2013-03-01 18:17:00,24.0,17.5,30.61,North,360,10.2,15.0,76,0.00,CLR,,0.00,WeatherDisplay:10.37,2013-03-02 00:17:00,
2013-03-01 18:19:00,24.0,17.5,30.61,NNW,337,9.6,17.3,76,0.00,CLR,,0.00,WeatherDisplay:10.37,2013-03-02 00:19:00,
2013-03-01 18:20:00,24.0,17.5,30.61,NNE,22,8.4,11.5,76,0.00,CLR,,0.00,WeatherDisplay:10.37,2013-03-02 00:20:00,
2013-03-01 18:21:00,24.0,17.5,30.61,NW,315,5.7,15.0,76,0.00,CLR,,0.00,WeatherDisplay:10.37,2013-03-02 00:21:00,
2013-03-01 18:22:00,24.0,17.5,30.61,NE,45,9.2,16.1,76,0.00,CLR,,0.00,WeatherDisplay:10.37,2013-03-02 00:22:00,
2013-03-01 18:25:00,24.0,17.5,30.61,NNW,337,8.9,11.5,76,0.00,CLR,,0.00,WeatherDisplay:10.37,2013-03-02 00:25:00,
2013-03-01 18:26:00,24.0,17.5,30.61,NNW,337,9.5,11.5,76,0.00,CLR,,0.00,WeatherDisplay:10.37,2013-03-02 00:26:00,
2013-03-01 18:27:00,24.0,17.5,30.61,NW,315,10.7,12.7,76,0.00,CLR,,0.00,WeatherDisplay:10.37,2013-03-02 00:27:00,
2013-03-01 18:30:00,24.0,17.8,30.61,NNW,337,8.7,15.0,77,0.00,CLR,,0.00,WeatherDisplay:10.37,2013-03-02 00:30:00,
2013-03-01 18:31:00,24.0,17.8,30.61,North,360,8.0,10.4,77,0.00,CLR,,0.00,WeatherDisplay:10.37,2013-03-02 00:31:00,
2013-03-01 18:32:00,24.0,17.5,30.61,NNW,337,9.1,12.0,76,0.00,CLR,,0.00,WeatherDisplay:10.37,2013-03-02 00:32:00,
2013-03-01 18:35:00,24.0,17.5,30.61,NNW,337,9.7,15.0,76,0.00,CLR,,0.00,WeatherDisplay:10.37,2013-03-02 00:35:00,
2013-03-01 18:36:00,24.0,17.8,30.61,North,360,10.4,12.0,77,0.00,CLR,,0.00,WeatherDisplay:10.37,2013-03-02 00:36:00,
2013-03-01 18:38:00,24.0,17.8,30.61,NNW,337,9.6,11.5,77,0.00,CLR,,0.00,WeatherDisplay:10.37,2013-03-02 00:38:00,
2013-03-01 18:40:00,24.0,17.8,30.61,NNW,337,9.4,10.4,77,0.00,CLR,,0.00,WeatherDisplay:10.37,2013-03-02 00:40:00,
2013-03-01 18:41:00,24.0,17.8,30.62,North,360,7.6,10.4,77,0.00,CLR,,0.00,WeatherDisplay:10.37,2013-03-02 00:41:00,
2013-03-01 18:43:00,24.0,18.1,30.62,North,360,7.1,10.4,78,0.00,CLR,,0.00,WeatherDisplay:10.37,2013-03-02 00:43:00,
2013-03-01 18:45:00,24.0,18.1,30.62,NNW,337,7.0,9.2,78,0.00,CLR,,0.00,WeatherDisplay:10.37,2013-03-02 00:45:00,
2013-03-01 18:46:00,23.0,17.5,30.62,North,360,8.3,11.5,79,0.00,CLR,,0.00,WeatherDisplay:10.37,2013-03-02 00:46:00,
2013-03-01 18:48:00,23.0,17.5,30.62,NNW,337,6.7,10.0,79,0.00,CLR,,0.00,WeatherDisplay:10.37,2013-03-02 00:48:00,
2013-03-01 18:50:00,23.0,17.7,30.62,North,360,9.6,11.5,80,0.00,CLR,,0.00,WeatherDisplay:10.37,2013-03-02 00:50:00,
2013-03-01 18:52:00,24.0,18.1,30.62,NNW,337,7.1,10.4,78,0.00,CLR,,0.00,WeatherDisplay:10.37,2013-03-02 00:52:00,
2013-03-01 18:53:00,23.0,17.7,30.62,North,360,8.0,10.4,80,0.00,CLR,,0.00,WeatherDisplay:10.37,2013-03-02 00:53:00,
2013-03-01 18:55:00,23.0,17.5,30.62,NNW,337,11.6,11.6,79,0.00,CLR,,0.00,WeatherDisplay:10.37,2013-03-02 00:55:00,
2013-03-01 18:57:00,23.0,17.7,30.62,North,360,8.1,11.5,80,0.00,CLR,,0.00,WeatherDisplay:10.37,2013-03-02 00:57:00,
2013-03-01 18:58:00,23.0,17.7,30.62,North,360,7.7,10.4,80,0.00,CLR,,0.00,WeatherDisplay:10.37,2013-03-02 00:58:00,
2013-03-01 19:00:00,23.0,17.7,30.62,NNE,22,8.5,10.4,80,0.00,CLR,,0.00,WeatherDisplay:10.37,2013-03-02 01:00:00,
2013-03-01 19:01:00,23.0,17.7,30.62,NNW,337,8.3,10.4,80,0.00,CLR,,0.00,WeatherDisplay:10.37,2013-03-02 01:01:00,
2013-03-01 19:02:00,24.0,18.4,30.62,NNE,22,6.6,9.2,79,0.00,CLR,,0.00,WeatherDisplay:10.37,2013-03-02 01:02:00,
2013-03-01 19:03:00,23.0,17.7,30.62,North,360,6.3,9.2,80,0.00,CLR,,0.00,WeatherDisplay:10.37,2013-03-02 01:03:00,
2013-03-01 19:05:00,23.0,17.7,30.62,NNW,337,8.6,11.5,80,0.00,CLR,,0.00,WeatherDisplay:10.37,2013-03-02 01:05:00,
2013-03-01 19:06:00,23.0,17.7,30.62,NNW,337,9.7,11.5,80,0.00,CLR,,0.00,WeatherDisplay:10.37,2013-03-02 01:06:00,
2013-03-01 19:07:00,23.0,17.7,30.62,North,360,9.4,11.5,80,0.00,CLR,,0.00,WeatherDisplay:10.37,2013-03-02 01:07:00,
2013-03-01 19:09:00,23.0,17.7,30.62,NNW,337,8.9,11.5,80,0.00,CLR,,0.00,WeatherDisplay:10.37,2013-03-02 01:09:00,
2013-03-01 19:10:00,23.0,17.7,30.62,NNW,337,8.4,10.4,80,0.00,CLR,,0.00,WeatherDisplay:10.37,2013-03-02 01:10:00,
2013-03-01 19:11:00,23.0,17.7,30.62,North,360,8.3,10.4,80,0.00,CLR,,0.00,WeatherDisplay:10.37,2013-03-02 01:11:00,
2013-03-01 19:12:00,23.0,17.7,30.63,North,360,8.5,11.5,80,0.00,CLR,,0.00,WeatherDisplay:10.37,2013-03-02 01:12:00,
2013-03-01 19:14:00,23.0,18.0,30.63,NNW,337,8.4,11.5,81,0.00,CLR,,0.00,WeatherDisplay:10.37,2013-03-02 01:14:00,
2013-03-01 19:15:00,23.0,17.7,30.63,North,360,9.5,11.5,80,0.00,CLR,,0.00,WeatherDisplay:10.37,2013-03-02 01:15:00,
2013-03-01 19:16:00,23.0,17.7,30.63,NNE,22,8.3,12.7,80,0.00,CLR,,0.00,WeatherDisplay:10.37,2013-03-02 01:16:00,
2013-03-01 19:17:00,23.0,18.0,30.63,NNE,22,3.8,9.2,81,0.00,CLR,,0.00,WeatherDisplay:10.37,2013-03-02 01:17:00,
2013-03-01 19:19:00,23.0,18.0,30.63,NNE,22,7.7,10.4,81,0.00,CLR,,0.00,WeatherDisplay:10.37,2013-03-02 01:19:00,
2013-03-01 19:20:00,23.0,17.7,30.63,NNW,337,9.6,15.0,80,0.00,CLR,,0.00,WeatherDisplay:10.37,2013-03-02 01:20:00,
2013-03-01 19:21:00,23.0,17.7,30.63,North,360,10.3,12.7,80,0.00,CLR,,0.00,WeatherDisplay:10.37,2013-03-02 01:21:00,
2013-03-01 19:22:00,23.0,17.7,30.63,NNW,337,9.0,11.5,80,0.00,CLR,,0.00,WeatherDisplay:10.37,2013-03-02 01:22:00,
2013-03-01 19:24:00,23.0,17.7,30.63,NW,315,5.8,11.5,80,0.00,CLR,,0.00,WeatherDisplay:10.37,2013-03-02 01:24:00,
2013-03-01 19:25:00,23.0,17.7,30.63,NNE,22,7.9,11.5,80,0.00,CLR,,0.00,WeatherDisplay:10.37,2013-03-02 01:25:00,
2013-03-01 19:26:00,23.0,17.7,30.63,North,360,8.7,10.4,80,0.00,CLR,,0.00,WeatherDisplay:10.37,2013-03-02 01:26:00,
2013-03-01 19:27:00,23.0,17.7,30.63,North,360,8.4,10.4,80,0.00,CLR,,0.00,WeatherDisplay:10.37,2013-03-02 01:27:00,
2013-03-01 19:29:00,23.0,17.7,30.63,NNW,337,6.7,11.0,80,0.00,CLR,,0.00,WeatherDisplay:10.37,2013-03-02 01:29:00,
2013-03-01 19:30:00,23.0,17.7,30.63,NNW,337,10.7,12.0,80,0.00,CLR,,0.00,WeatherDisplay:10.37,2013-03-02 01:30:00,
2013-03-01 19:32:00,23.0,17.7,30.63,NNE,22,8.4,12.7,80,0.00,CLR,,0.00,WeatherDisplay:10.37,2013-03-02 01:32:00,
2013-03-01 19:33:00,23.0,17.7,30.63,NW,315,6.1,10.4,80,0.00,CLR,,0.00,WeatherDisplay:10.37,2013-03-02 01:33:00,
2013-03-01 19:34:00,23.0,17.7,30.63,NNE,22,9.8,16.1,80,0.00,CLR,,0.00,WeatherDisplay:10.37,2013-03-02 01:34:00,
2013-03-01 19:36:00,23.0,17.7,30.63,North,360,8.9,13.8,80,0.00,CLR,,0.00,WeatherDisplay:10.37,2013-03-02 01:36:00,
2013-03-01 19:37:00,23.0,17.7,30.63,North,360,11.6,14.0,80,0.00,CLR,,0.00,WeatherDisplay:10.37,2013-03-02 01:37:00,
2013-03-01 19:38:00,23.0,17.7,30.63,NNW,337,12.4,13.0,80,0.00,CLR,,0.00,WeatherDisplay:10.37,2013-03-02 01:38:00,
2013-03-01 19:39:00,23.0,17.5,30.63,NNW,337,13.2,15.0,79,0.00,CLR,,0.00,WeatherDisplay:10.37,2013-03-02 01:39:00,
2013-03-01 19:41:00,23.0,17.5,30.63,NNE,22,11.0,16.1,79,0.00,CLR,,0.00,WeatherDisplay:10.37,2013-03-02 01:41:00,
2013-03-01 19:42:00,23.0,17.2,30.63,North,360,10.7,12.7,78,0.00,CLR,,0.00,WeatherDisplay:10.37,2013-03-02 01:42:00,
2013-03-01 19:43:00,23.0,17.5,30.63,North,360,10.1,12.7,79,0.00,CLR,,0.00,WeatherDisplay:10.37,2013-03-02 01:43:00,
2013-03-01 19:44:00,23.0,17.2,30.63,NNW,337,9.9,12.0,78,0.00,CLR,,0.00,WeatherDisplay:10.37,2013-03-02 01:44:00,
2013-03-01 19:46:00,23.0,17.5,30.63,NNW,337,10.2,12.7,79,0.00,CLR,,0.00,WeatherDisplay:10.37,2013-03-02 01:46:00,
2013-03-01 19:47:00,23.0,17.5,30.63,NNW,337,10.6,11.5,79,0.00,CLR,,0.00,WeatherDisplay:10.37,2013-03-02 01:47:00,
2013-03-01 19:48:00,23.0,17.5,30.63,North,360,10.6,11.5,79,0.00,CLR,,0.00,WeatherDisplay:10.37,2013-03-02 01:48:00,
2013-03-01 19:49:00,23.0,17.7,30.63,North,360,9.3,11.5,80,0.00,CLR,,0.00,WeatherDisplay:10.37,2013-03-02 01:49:00,
2013-03-01 19:51:00,23.0,17.5,30.63,NNW,337,10.8,15.0,79,0.00,CLR,,0.00,WeatherDisplay:10.37,2013-03-02 01:51:00,
2013-03-01 19:53:00,23.0,17.7,30.63,NNW,337,10.4,13.8,80,0.00,CLR,,0.00,WeatherDisplay:10.37,2013-03-02 01:53:00,
2013-03-01 19:55:00,23.0,17.7,30.63,NNW,337,8.6,12.7,80,0.00,CLR,,0.00,WeatherDisplay:10.37,2013-03-02 01:55:00,
2013-03-01 19:56:00,23.0,17.7,30.63,North,360,9.5,12.7,80,0.00,CLR,,0.00,WeatherDisplay:10.37,2013-03-02 01:56:00,
2013-03-01 19:58:00,23.0,17.7,30.63,NNW,337,9.7,12.7,80,0.00,CLR,,0.00,WeatherDisplay:10.37,2013-03-02 01:58:00,
2013-03-01 20:00:00,23.0,17.5,30.63,North,360,11.1,16.1,79,0.00,CLR,,0.00,WeatherDisplay:10.37,2013-03-02 02:00:00,
2013-03-01 20:01:00,23.0,17.5,30.63,North,360,10.1,11.5,79,0.00,CLR,,0.00,WeatherDisplay:10.37,2013-03-02 02:01:00,
2013-03-01 20:03:00,23.0,17.5,30.63,NNW,337,6.8,15.0,79,0.00,CLR,,0.00,WeatherDisplay:10.37,2013-03-02 02:03:00,
2013-03-01 20:05:00,23.0,17.7,30.63,NNW,337,10.1,11.5,80,0.00,CLR,,0.00,WeatherDisplay:10.37,2013-03-02 02:05:00,
2013-03-01 20:06:00,23.0,17.7,30.63,NNW,337,9.9,11.5,80,0.00,CLR,,0.00,WeatherDisplay:10.37,2013-03-02 02:06:00,
2013-03-01 20:08:00,23.0,17.7,30.63,North,360,11.1,12.7,80,0.00,CLR,,0.00,WeatherDisplay:10.37,2013-03-02 02:08:00,
2013-03-01 20:10:00,23.0,17.7,30.63,North,360,11.2,12.0,80,0.00,CLR,,0.00,WeatherDisplay:10.37,2013-03-02 02:10:00,
2013-03-01 20:12:00,23.0,17.7,30.63,NNW,337,10.4,16.0,80,0.00,CLR,,0.00,WeatherDisplay:10.37,2013-03-02 02:12:00,
2013-03-01 20:13:00,23.0,17.7,30.63,NNE,22,12.0,16.1,80,0.00,CLR,,0.00,WeatherDisplay:10.37,2013-03-02 02:13:00,
2013-03-01 20:16:00,23.0,18.0,30.63,NNE,22,9.1,12.7,81,0.00,CLR,,0.00,WeatherDisplay:10.37,2013-03-02 02:16:00,
2013-03-01 20:17:00,23.0,18.0,30.63,NNE,22,6.1,11.5,81,0.00,CLR,,0.00,WeatherDisplay:10.37,2013-03-02 02:17:00,
2013-03-01 20:18:00,23.0,18.0,30.63,NNW,337,8.0,9.2,81,0.00,CLR,,0.00,WeatherDisplay:10.37,2013-03-02 02:18:00,
2013-03-01 20:19:00,23.0,18.0,30.63,NNW,337,9.1,10.0,81,0.00,CLR,,0.00,WeatherDisplay:10.37,2013-03-02 02:19:00,
2013-03-01 20:21:00,23.0,18.0,30.63,NNW,337,7.9,9.2,81,0.00,CLR,,0.00,WeatherDisplay:10.37,2013-03-02 02:21:00,
2013-03-01 20:22:00,23.0,18.0,30.63,NNW,337,4.9,10.4,81,0.00,CLR,,0.00,WeatherDisplay:10.37,2013-03-02 02:22:00,
2013-03-01 20:23:00,23.0,18.0,30.63,NNE,22,7.8,10.4,81,0.00,CLR,,0.00,WeatherDisplay:10.37,2013-03-02 02:23:00,
2013-03-01 20:24:00,23.0,18.0,30.63,NNW,337,7.4,11.5,81,0.00,CLR,,0.00,WeatherDisplay:10.37,2013-03-02 02:24:00,
2013-03-01 20:26:00,23.0,18.0,30.63,NNW,337,9.3,11.5,81,0.00,CLR,,0.00,WeatherDisplay:10.37,2013-03-02 02:26:00,
2013-03-01 20:27:00,23.0,18.0,30.63,NNE,22,7.4,10.4,81,0.00,CLR,,0.00,WeatherDisplay:10.37,2013-03-02 02:27:00,
2013-03-01 20:28:00,23.0,18.3,30.63,NNE,22,6.1,10.4,82,0.00,CLR,,0.00,WeatherDisplay:10.37,2013-03-02 02:28:00,
2013-03-01 20:29:00,23.0,18.3,30.63,NNE,22,6.2,10.4,82,0.00,CLR,,0.00,WeatherDisplay:10.37,2013-03-02 02:29:00,
2013-03-01 20:31:00,23.0,18.3,30.64,North,360,7.7,10.4,82,0.00,CLR,,0.00,WeatherDisplay:10.37,2013-03-02 02:31:00,
2013-03-01 20:33:00,23.0,18.3,30.64,NNE,22,5.5,9.2,82,0.00,CLR,,0.00,WeatherDisplay:10.37,2013-03-02 02:33:00,
2013-03-01 20:34:00,23.0,18.3,30.64,NNE,22,9.9,11.5,82,0.00,CLR,,0.00,WeatherDisplay:10.37,2013-03-02 02:34:00,
2013-03-01 20:37:00,23.0,18.6,30.64,NNW,337,4.1,6.9,83,0.00,CLR,,0.00,WeatherDisplay:10.37,2013-03-02 02:37:00,
2013-03-01 20:38:00,23.0,18.6,30.64,NNE,22,6.4,8.1,83,0.00,CLR,,0.00,WeatherDisplay:10.37,2013-03-02 02:38:00,
2013-03-01 20:39:00,23.0,18.3,30.64,North,360,7.3,10.4,82,0.00,CLR,,0.00,WeatherDisplay:10.37,2013-03-02 02:39:00,
2013-03-01 20:40:00,23.0,18.3,30.64,NNE,22,8.0,10.4,82,0.00,CLR,,0.00,WeatherDisplay:10.37,2013-03-02 02:40:00,
2013-03-01 20:42:00,23.0,18.6,30.64,NNE,22,6.0,8.1,83,0.00,CLR,,0.00,WeatherDisplay:10.37,2013-03-02 02:42:00,
2013-03-01 20:43:00,23.0,18.6,30.64,NNE,22,6.0,10.4,83,0.00,CLR,,0.00,WeatherDisplay:10.37,2013-03-02 02:43:00,
2013-03-01 20:44:00,23.0,18.6,30.64,NNE,22,9.6,11.5,83,0.00,CLR,,0.00,WeatherDisplay:10.37,2013-03-02 02:44:00,
2013-03-01 20:45:00,23.0,18.6,30.64,NNE,22,8.0,11.5,83,0.00,CLR,,0.00,WeatherDisplay:10.37,2013-03-02 02:45:00,
2013-03-01 20:47:00,22.0,17.6,30.64,NNE,22,6.9,9.2,83,0.00,CLR,,0.00,WeatherDisplay:10.37,2013-03-02 02:47:00,
2013-03-01 20:48:00,22.0,17.3,30.64,North,360,8.0,11.5,82,0.00,CLR,,0.00,WeatherDisplay:10.37,2013-03-02 02:48:00,
2013-03-01 20:49:00,22.0,17.3,30.64,North,360,8.4,11.5,82,0.00,CLR,,0.00,WeatherDisplay:10.37,2013-03-02 02:49:00,
2013-03-01 20:50:00,22.0,17.3,30.64,NNE,22,7.5,11.5,82,0.00,CLR,,0.00,WeatherDisplay:10.37,2013-03-02 02:50:00,
2013-03-01 20:52:00,23.0,18.3,30.63,NNE,22,7.8,18.4,82,0.00,CLR,,0.00,WeatherDisplay:10.37,2013-03-02 02:52:00,
2013-03-01 20:53:00,22.0,17.3,30.63,NNE,22,9.8,11.5,82,0.00,CLR,,0.00,WeatherDisplay:10.37,2013-03-02 02:53:00,
2013-03-01 20:54:00,22.0,17.3,30.63,North,360,9.1,11.5,82,0.00,CLR,,0.00,WeatherDisplay:10.37,2013-03-02 02:54:00,
2013-03-01 20:55:00,22.0,17.3,30.63,NNE,22,9.4,11.5,82,0.00,CLR,,0.00,WeatherDisplay:10.37,2013-03-02 02:55:00,
2013-03-01 20:57:00,22.0,17.1,30.63,NNE,22,11.5,16.1,81,0.00,CLR,,0.00,WeatherDisplay:10.37,2013-03-02 02:57:00,
2013-03-01 20:58:00,22.0,16.8,30.63,NNE,22,12.6,16.1,80,0.00,CLR,,0.00,WeatherDisplay:10.37,2013-03-02 02:58:00,
2013-03-01 20:59:00,22.0,16.8,30.63,NNE,22,10.9,15.0,80,0.00,CLR,,0.00,WeatherDisplay:10.37,2013-03-02 02:59:00,
2013-03-01 21:00:00,22.0,16.8,30.63,North,360,9.2,12.7,80,0.00,CLR,,0.00,WeatherDisplay:10.37,2013-03-02 03:00:00,
2013-03-01 21:02:00,22.0,16.8,30.64,NNW,337,10.0,14.0,80,0.00,CLR,,0.00,WeatherDisplay:10.37,2013-03-02 03:02:00,
2013-03-01 21:03:00,22.0,16.8,30.64,NNW,337,11.0,15.0,80,0.00,CLR,,0.00,WeatherDisplay:10.37,2013-03-02 03:03:00,
2013-03-01 21:04:00,22.0,16.8,30.64,NNW,337,9.4,12.7,80,0.00,CLR,,0.00,WeatherDisplay:10.37,2013-03-02 03:04:00,
2013-03-01 21:05:00,22.0,16.8,30.64,NNW,337,9.5,11.5,80,0.00,CLR,,0.00,WeatherDisplay:10.37,2013-03-02 03:05:00,
2013-03-01 21:07:00,22.0,16.8,30.64,North,360,9.3,11.5,80,0.00,CLR,,0.00,WeatherDisplay:10.37,2013-03-02 03:07:00,
2013-03-01 21:08:00,22.0,16.8,30.64,NNE,22,8.6,11.5,80,0.00,CLR,,0.00,WeatherDisplay:10.37,2013-03-02 03:08:00,
2013-03-01 21:09:00,22.0,16.8,30.64,NNW,337,6.0,11.5,80,0.00,CLR,,0.00,WeatherDisplay:10.37,2013-03-02 03:09:00,
2013-03-01 21:10:00,22.0,16.8,30.64,NNE,22,10.4,12.7,80,0.00,CLR,,0.00,WeatherDisplay:10.37,2013-03-02 03:10:00,
2013-03-01 21:12:00,22.0,16.8,30.64,NNE,22,7.6,10.4,80,0.00,CLR,,0.00,WeatherDisplay:10.37,2013-03-02 03:12:00,
2013-03-01 21:13:00,22.0,17.1,30.64,NNE,22,7.4,9.2,81,0.00,CLR,,0.00,WeatherDisplay:10.37,2013-03-02 03:13:00,
2013-03-01 21:14:00,22.0,17.1,30.64,NNE,22,4.9,8.1,81,0.00,CLR,,0.00,WeatherDisplay:10.37,2013-03-02 03:14:00,
2013-03-01 21:15:00,22.0,17.3,30.64,NNW,337,4.5,6.0,82,0.00,CLR,,0.00,WeatherDisplay:10.37,2013-03-02 03:15:00,
2013-03-01 21:17:00,22.0,17.3,30.64,NNW,337,7.3,12.0,82,0.00,CLR,,0.00,WeatherDisplay:10.37,2013-03-02 03:17:00,
2013-03-01 21:18:00,22.0,17.3,30.64,NNW,337,8.7,11.5,82,0.00,CLR,,0.00,WeatherDisplay:10.37,2013-03-02 03:18:00,
2013-03-01 21:19:00,22.0,17.3,30.64,NNE,22,7.1,11.5,82,0.00,CLR,,0.00,WeatherDisplay:10.37,2013-03-02 03:19:00,
2013-03-01 21:21:00,22.0,17.3,30.64,NNE,22,6.8,10.4,82,0.00,CLR,,0.00,WeatherDisplay:10.37,2013-03-02 03:21:00,
2013-03-01 21:22:00,22.0,17.3,30.63,NNE,22,5.7,10.4,82,0.00,CLR,,0.00,WeatherDisplay:10.37,2013-03-02 03:22:00,
2013-03-01 21:23:00,22.0,17.3,30.63,NNE,22,5.0,9.2,82,0.00,CLR,,0.00,WeatherDisplay:10.37,2013-03-02 03:23:00,
2013-03-01 21:24:00,22.0,17.3,30.63,NW,315,2.7,4.6,82,0.00,CLR,,0.00,WeatherDisplay:10.37,2013-03-02 03:24:00,
2013-03-01 21:26:00,22.0,17.3,30.63,NNE,22,9.0,10.0,82,0.00,CLR,,0.00,WeatherDisplay:10.37,2013-03-02 03:26:00,
2013-03-01 21:28:00,22.0,17.3,30.63,NNE,22,7.5,10.4,82,0.00,CLR,,0.00,WeatherDisplay:10.37,2013-03-02 03:28:00,
2013-03-01 21:29:00,22.0,17.3,30.63,NNE,22,6.8,10.4,82,0.00,CLR,,0.00,WeatherDisplay:10.37,2013-03-02 03:29:00,
2013-03-01 21:31:00,22.0,17.3,30.63,NNE,22,6.3,9.2,82,0.00,CLR,,0.00,WeatherDisplay:10.37,2013-03-02 03:31:00,
2013-03-01 21:33:00,22.0,17.3,30.64,NNE,22,4.8,5.8,82,0.00,CLR,,0.00,WeatherDisplay:10.37,2013-03-02 03:33:00,
2013-03-01 21:34:00,22.0,17.3,30.64,NNE,22,8.1,10.4,82,0.00,CLR,,0.00,WeatherDisplay:10.37,2013-03-02 03:34:00,
2013-03-01 21:36:00,22.0,17.6,30.64,NNE,22,6.0,7.0,83,0.00,CLR,,0.00,WeatherDisplay:10.37,2013-03-02 03:36:00,
2013-03-01 21:38:00,22.0,17.3,30.64,NNE,22,7.1,10.4,82,0.00,CLR,,0.00,WeatherDisplay:10.37,2013-03-02 03:38:00,
2013-03-01 21:39:00,22.0,17.3,30.64,NNE,22,3.9,6.9,82,0.00,CLR,,0.00,WeatherDisplay:10.37,2013-03-02 03:39:00,
2013-03-01 21:41:00,22.0,17.3,30.64,NNW,337,9.2,16.1,82,0.00,CLR,,0.00,WeatherDisplay:10.37,2013-03-02 03:41:00,
2013-03-01 21:43:00,22.0,17.3,30.64,NNE,22,10.4,13.8,82,0.00,CLR,,0.00,WeatherDisplay:10.37,2013-03-02 03:43:00,
2013-03-01 21:44:00,22.0,17.3,30.64,NNE,22,9.4,11.5,82,0.00,CLR,,0.00,WeatherDisplay:10.37,2013-03-02 03:44:00,
2013-03-01 21:46:00,22.0,17.1,30.64,NNW,337,12.2,16.1,81,0.00,CLR,,0.00,WeatherDisplay:10.37,2013-03-02 03:46:00,
2013-03-01 21:48:00,22.0,17.1,30.64,NNW,337,11.9,13.8,81,0.00,CLR,,0.00,WeatherDisplay:10.37,2013-03-02 03:48:00,
2013-03-01 21:49:00,22.0,17.1,30.64,NNW,337,11.1,13.8,81,0.00,CLR,,0.00,WeatherDisplay:10.37,2013-03-02 03:49:00,
2013-03-01 21:51:00,22.0,16.8,30.64,North,360,11.0,16.1,80,0.00,CLR,,0.00,WeatherDisplay:10.37,2013-03-02 03:51:00,
2013-03-01 21:53:00,22.0,16.8,30.64,NNW,337,9.7,11.5,80,0.00,CLR,,0.00,WeatherDisplay:10.37,2013-03-02 03:53:00,
2013-03-01 21:54:00,22.0,17.1,30.64,NNW,337,9.6,13.8,81,0.00,CLR,,0.00,WeatherDisplay:10.37,2013-03-02 03:54:00,
2013-03-01 21:56:00,22.0,17.1,30.64,NNE,22,8.0,11.5,81,0.00,CLR,,0.00,WeatherDisplay:10.37,2013-03-02 03:56:00,
2013-03-01 21:58:00,22.0,16.8,30.64,North,360,10.0,13.8,80,0.00,CLR,,0.00,WeatherDisplay:10.37,2013-03-02 03:58:00,
2013-03-01 21:59:00,22.0,17.1,30.64,NNE,22,8.5,11.5,81,0.00,CLR,,0.00,WeatherDisplay:10.37,2013-03-02 03:59:00,
2013-03-01 22:02:00,22.0,17.1,30.65,NNW,337,7.2,10.4,81,0.00,CLR,,0.00,WeatherDisplay:10.37,2013-03-02 04:02:00,
2013-03-01 22:03:00,22.0,17.1,30.65,NNW,337,7.8,10.4,81,0.00,CLR,,0.00,WeatherDisplay:10.37,2013-03-02 04:03:00,
2013-03-01 22:04:00,22.0,17.3,30.65,North,360,8.5,11.0,82,0.00,CLR,,0.00,WeatherDisplay:10.37,2013-03-02 04:04:00,
2013-03-01 22:07:00,22.0,17.3,30.65,NNW,337,9.4,11.5,82,0.00,CLR,,0.00,WeatherDisplay:10.37,2013-03-02 04:07:00,
2013-03-01 22:08:00,22.0,17.3,30.65,NNW,337,9.9,11.5,82,0.00,CLR,,0.00,WeatherDisplay:10.37,2013-03-02 04:08:00,
2013-03-01 22:09:00,22.0,17.3,30.65,North,360,7.8,11.5,82,0.00,CLR,,0.00,WeatherDisplay:10.37,2013-03-02 04:09:00,
2013-03-01 22:12:00,22.0,17.3,30.65,NNW,337,8.2,9.2,82,0.00,CLR,,0.00,WeatherDisplay:10.37,2013-03-02 04:12:00,
2013-03-01 22:13:00,22.0,17.3,30.65,North,360,7.4,11.5,82,0.00,CLR,,0.00,WeatherDisplay:10.37,2013-03-02 04:13:00,
2013-03-01 22:14:00,22.0,17.3,30.65,North,360,7.1,11.5,82,0.00,CLR,,0.00,WeatherDisplay:10.37,2013-03-02 04:14:00,
2013-03-01 22:17:00,22.0,17.3,30.65,NNW,337,8.3,9.2,82,0.00,CLR,,0.00,WeatherDisplay:10.37,2013-03-02 04:17:00,
2013-03-01 22:19:00,22.0,17.3,30.65,NNW,337,7.2,10.4,82,0.00,CLR,,0.00,WeatherDisplay:10.37,2013-03-02 04:19:00,
2013-03-01 22:23:00,22.0,17.3,30.65,NNW,337,12.1,15.0,82,0.00,CLR,,0.00,WeatherDisplay:10.37,2013-03-02 04:23:00,
2013-03-01 22:24:00,22.0,17.3,30.65,NNW,337,9.4,13.8,82,0.00,CLR,,0.00,WeatherDisplay:10.37,2013-03-02 04:24:00,
2013-03-01 22:28:00,22.0,17.3,30.65,North,360,8.4,10.4,82,0.00,CLR,,0.00,WeatherDisplay:10.37,2013-03-02 04:28:00,
2013-03-01 22:29:00,22.0,17.3,30.65,North,360,7.5,11.5,82,0.00,CLR,,0.00,WeatherDisplay:10.37,2013-03-02 04:29:00,
2013-03-01 22:33:00,22.0,17.3,30.65,NNE,22,7.1,12.0,82,0.00,CLR,,0.00,WeatherDisplay:10.37,2013-03-02 04:33:00,
2013-03-01 22:34:00,22.0,17.3,30.65,NNE,22,8.8,12.7,82,0.00,CLR,,0.00,WeatherDisplay:10.37,2013-03-02 04:34:00,
2013-03-01 22:38:00,22.0,17.3,30.65,NNE,22,6.4,11.5,82,0.00,CLR,,0.00,WeatherDisplay:10.37,2013-03-02 04:38:00,
2013-03-01 22:39:00,22.0,17.3,30.65,NNE,22,6.5,10.4,82,0.00,CLR,,0.00,WeatherDisplay:10.37,2013-03-02 04:39:00,
2013-03-01 22:43:00,22.0,17.6,30.65,NNE,22,7.7,11.5,83,0.00,CLR,,0.00,WeatherDisplay:10.37,2013-03-02 04:43:00,
2013-03-01 22:44:00,22.0,17.6,30.65,NNE,22,7.6,10.4,83,0.00,CLR,,0.00,WeatherDisplay:10.37,2013-03-02 04:44:00,
2013-03-01 22:48:00,22.0,17.6,30.65,NNW,337,7.5,9.2,83,0.00,CLR,,0.00,WeatherDisplay:10.37,2013-03-02 04:48:00,
2013-03-01 22:49:00,22.0,17.6,30.65,NNW,337,8.4,9.2,83,0.00,CLR,,0.00,WeatherDisplay:10.37,2013-03-02 04:49:00,
2013-03-01 22:53:00,22.0,17.6,30.65,NNE,22,10.3,11.5,83,0.00,CLR,,0.00,WeatherDisplay:10.37,2013-03-02 04:53:00,
2013-03-01 22:54:00,22.0,17.6,30.65,North,360,10.5,13.8,83,0.00,CLR,,0.00,WeatherDisplay:10.37,2013-03-02 04:54:00,
2013-03-01 22:58:00,22.0,17.9,30.65,NNE,22,6.9,10.0,84,0.00,CLR,,0.00,WeatherDisplay:10.37,2013-03-02 04:58:00,
2013-03-01 22:59:00,22.0,17.9,30.65,North,360,8.6,11.5,84,0.00,CLR,,0.00,WeatherDisplay:10.37,2013-03-02 04:59:00,
2013-03-01 23:00:00,22.0,17.9,30.65,North,360,6.9,11.5,84,0.00,CLR,,0.00,WeatherDisplay:10.37,2013-03-02 05:00:00,
2013-03-01 23:01:00,22.0,17.9,30.65,NNW,337,7.2,9.2,84,0.00,CLR,,0.00,WeatherDisplay:10.37,2013-03-02 05:01:00,
2013-03-01 23:05:00,22.0,17.9,30.65,North,360,6.4,9.2,84,0.00,CLR,,0.00,WeatherDisplay:10.37,2013-03-02 05:05:00,
2013-03-01 23:06:00,22.0,17.9,30.65,NNE,22,5.3,9.2,84,0.00,CLR,,0.00,WeatherDisplay:10.37,2013-03-02 05:06:00,
2013-03-01 23:10:00,22.0,17.9,30.65,NNE,22,6.2,9.2,84,0.00,CLR,,0.00,WeatherDisplay:10.37,2013-03-02 05:10:00,
2013-03-01 23:11:00,21.0,17.2,30.65,NNE,22,5.5,6.9,85,0.00,CLR,,0.00,WeatherDisplay:10.37,2013-03-02 05:11:00,
2013-03-01 23:15:00,21.0,17.2,30.64,NNE,22,4.8,8.1,85,0.00,CLR,,0.00,WeatherDisplay:10.37,2013-03-02 05:15:00,
2013-03-01 23:16:00,21.0,17.2,30.64,NNW,337,6.1,8.1,85,0.00,CLR,,0.00,WeatherDisplay:10.37,2013-03-02 05:16:00,
2013-03-01 23:20:00,21.0,17.5,30.64,North,360,5.4,5.8,86,0.00,CLR,,0.00,WeatherDisplay:10.37,2013-03-02 05:20:00,
2013-03-01 23:21:00,21.0,17.5,30.64,North,360,6.3,8.1,86,0.00,CLR,,0.00,WeatherDisplay:10.37,2013-03-02 05:21:00,
2013-03-01 23:25:00,21.0,17.5,30.64,NNW,337,6.9,9.2,86,0.00,CLR,,0.00,WeatherDisplay:10.37,2013-03-02 05:25:00,
2013-03-01 23:26:00,21.0,17.5,30.64,NNW,337,7.5,9.2,86,0.00,CLR,,0.00,WeatherDisplay:10.37,2013-03-02 05:26:00,
2013-03-01 23:30:00,21.0,17.5,30.64,North,360,6.9,9.2,86,0.00,CLR,,0.00,WeatherDisplay:10.37,2013-03-02 05:30:00,
2013-03-01 23:31:00,21.0,17.5,30.64,NNW,337,5.6,8.1,86,0.00,CLR,,0.00,WeatherDisplay:10.37,2013-03-02 05:31:00,
2013-03-01 23:32:00,21.0,17.5,30.64,North,360,6.0,8.1,86,0.00,CLR,,0.00,WeatherDisplay:10.37,2013-03-02 05:32:00,
2013-03-01 23:35:00,21.0,17.5,30.64,NNE,22,6.8,8.1,86,0.00,CLR,,0.00,WeatherDisplay:10.37,2013-03-02 05:35:00,
2013-03-01 23:36:00,21.0,17.5,30.64,NNW,337,6.6,8.1,86,0.00,CLR,,0.00,WeatherDisplay:10.37,2013-03-02 05:36:00,
2013-03-01 23:37:00,21.0,17.5,30.64,NNW,337,6.6,8.1,86,0.00,CLR,,0.00,WeatherDisplay:10.37,2013-03-02 05:37:00,
2013-03-01 23:41:00,21.0,17.5,30.64,NNW,337,9.0,10.4,86,0.00,CLR,,0.00,WeatherDisplay:10.37,2013-03-02 05:41:00,
2013-03-01 23:42:00,22.0,18.2,30.64,NNW,337,8.2,10.4,85,0.00,CLR,,0.00,WeatherDisplay:10.37,2013-03-02 05:42:00,
2013-03-01 23:46:00,21.0,17.5,30.64,NNW,337,5.3,8.1,86,0.00,CLR,,0.00,WeatherDisplay:10.37,2013-03-02 05:46:00,
2013-03-01 23:47:00,21.0,17.5,30.64,North,360,6.6,9.0,86,0.00,CLR,,0.00,WeatherDisplay:10.37,2013-03-02 05:47:00,
2013-03-01 23:51:00,21.0,17.2,30.64,North,360,8.9,10.4,85,0.00,CLR,,0.00,WeatherDisplay:10.37,2013-03-02 05:51:00,
2013-03-01 23:52:00,21.0,17.2,30.64,NNE,22,9.1,10.4,85,0.00,CLR,,0.00,WeatherDisplay:10.37,2013-03-02 05:52:00,
2013-03-01 23:56:00,21.0,17.2,30.64,NNE,22,4.7,5.8,85,0.00,CLR,,0.00,WeatherDisplay:10.37,2013-03-02 05:56:00,
2013-03-01 23:57:00,21.0,17.2,30.64,NNE,22,4.4,5.8,85,0.00,CLR,,0.00,WeatherDisplay:10.37,2013-03-02 05:57:00,